Observation data for Welch on 05/24/2020      Previous  Date  Next       Current Mesonet Observations  Soil Data  Daily Summary Page  Observations in Plain Language
KWE2 240500Z 14013KT 18/16 A2988 RMK A01 T01810160  RH  088%=      5-min Rain = 0
KWE2 240501Z 14012KT 18/16 A2988 RMK A01 T01800159  RH  087%=      5-min Rain = 0
KWE2 240502Z 14012KT 18/16 A2988 RMK A01 T01800159  RH  087%=      5-min Rain = 0
KWE2 240503Z 14012KT 18/16 A2988 RMK A01 T01800158  RH  087%=      5-min Rain = 0
KWE2 240504Z 14012KT 18/16 A2988 RMK A01 T01800157  RH  086%=      5-min Rain = 0
KWE2 240505Z 14012KT 18/16 A2988 RMK A01 T01800156  RH  086%=      5-min Rain = 0
KWE2 240506Z 14012KT 18/16 A2988 RMK A01 T01800156  RH  086%=      5-min Rain = 0
KWE2 240507Z 14013KT 18/16 A2988 RMK A01 T01800156  RH  086%=      5-min Rain = 0
KWE2 240508Z 14012KT 18/16 A2988 RMK A01 T01790155  RH  086%=      5-min Rain = 0
KWE2 240509Z 14012KT 18/16 A2988 RMK A01 T01790155  RH  086%=      5-min Rain = 0
KWE2 240510Z 14012KT 18/16 A2988 RMK A01 T01800155  RH  086%=      5-min Rain = 0
KWE2 240511Z 15012KT 18/16 A2988 RMK A01 T01790155  RH  086%=      5-min Rain = 0
KWE2 240512Z 15012KT 18/16 A2988 RMK A01 T01790155  RH  086%=      5-min Rain = 0
KWE2 240513Z 15012KT 18/16 A2988 RMK A01 T01780155  RH  086%=      5-min Rain = 0
KWE2 240514Z 15011KT 18/16 A2988 RMK A01 T01780156  RH  087%=      5-min Rain = 0
KWE2 240515Z 15012KT 18/16 A2988 RMK A01 T01770156  RH  087%=      5-min Rain = 0
KWE2 240516Z 14012KT 18/16 A2988 RMK A01 T01770155  RH  087%=      5-min Rain = 0
KWE2 240517Z 14012KT 18/16 A2988 RMK A01 T01770155  RH  087%=      5-min Rain = 0
KWE2 240518Z 15013KT 18/16 A2988 RMK A01 T01770155  RH  087%=      5-min Rain = 0
KWE2 240519Z 15012KT 18/15 A2988 RMK A01 T01760154  RH  087%=      5-min Rain = 0
KWE2 240520Z 14012KT 18/15 A2988 RMK A01 T01760154  RH  087%=      5-min Rain = 0
KWE2 240521Z 14012KT 18/15 A2988 RMK A01 T01760154  RH  087%=      5-min Rain = 0
KWE2 240522Z 15013KT 18/15 A2988 RMK A01 T01760154  RH  087%=      5-min Rain = 0
KWE2 240523Z 14011KT 18/15 A2988 RMK A01 T01760153  RH  087%=      5-min Rain = 0
KWE2 240524Z 14012KT 18/15 A2988 RMK A01 T01760154  RH  087%=      5-min Rain = 0
KWE2 240525Z 14012KT 18/15 A2988 RMK A01 T01760154  RH  087%=      5-min Rain = 0
KWE2 240526Z 14012KT 18/15 A2988 RMK A01 T01760153  RH  086%=      5-min Rain = 0
KWE2 240527Z 14012KT 18/15 A2988 RMK A01 T01760152  RH  086%=      5-min Rain = 0
KWE2 240528Z 14012KT 18/15 A2988 RMK A01 T01760152  RH  086%=      5-min Rain = 0
KWE2 240529Z 14012KT 18/15 A2988 RMK A01 T01760152  RH  086%=      5-min Rain = 0
KWE2 240530Z 15012KT 18/15 A2988 RMK A01 T01760151  RH  086%=      5-min Rain = 0
KWE2 240531Z 15011KT 18/15 A2988 RMK A01 T01760151  RH  085%=      5-min Rain = 0
KWE2 240532Z 15011KT 18/15 A2988 RMK A01 T01760151  RH  085%=      5-min Rain = 0
KWE2 240533Z 15010KT 18/15 A2988 RMK A01 T01760151  RH  085%=      5-min Rain = 0
KWE2 240534Z 15011KT 18/15 A2988 RMK A01 T01760151  RH  085%=      5-min Rain = 0
KWE2 240535Z 14013KT 18/15 A2988 RMK A01 T01760151  RH  086%=      5-min Rain = 0
KWE2 240536Z 14013KT 18/15 A2988 RMK A01 T01760150  RH  085%=      5-min Rain = 0
KWE2 240537Z 14013KT 18/15 A2988 RMK A01 T01770149  RH  084%=      5-min Rain = 0
KWE2 240538Z 15012KT 18/15 A2988 RMK A01 T01770148  RH  083%=      5-min Rain = 0
KWE2 240539Z 15011KT 18/15 A2988 RMK A01 T01780148  RH  083%=      5-min Rain = 0
KWE2 240540Z 15010KT 18/15 A2988 RMK A01 T01780149  RH  083%=      5-min Rain = 0
KWE2 240541Z 15010KT 18/15 A2988 RMK A01 T01770150  RH  084%=      5-min Rain = 0
KWE2 240542Z 15011KT 18/15 A2989 RMK A01 T01770150  RH  084%=      5-min Rain = 0
KWE2 240543Z 15011KT 18/15 A2989 RMK A01 T01770150  RH  085%=      5-min Rain = 0
KWE2 240544Z 15011KT 18/15 A2989 RMK A01 T01760150  RH  085%=      5-min Rain = 0
KWE2 240545Z 15011KT 18/15 A2989 RMK A01 T01760150  RH  084%=      5-min Rain = 0
KWE2 240546Z 15012KT 18/15 A2989 RMK A01 T01760149  RH  084%=      5-min Rain = 0
KWE2 240547Z 15012KT 18/15 A2989 RMK A01 T01770148  RH  083%=      5-min Rain = 0
KWE2 240548Z 15011KT 18/15 A2989 RMK A01 T01770148  RH  083%=      5-min Rain = 0
KWE2 240549Z 15011KT 18/15 A2989 RMK A01 T01770148  RH  083%=      5-min Rain = 0
KWE2 240550Z 15011KT 18/15 A2989 RMK A01 T01770147  RH  083%=      5-min Rain = 0
KWE2 240551Z 15011KT 18/15 A2989 RMK A01 T01770146  RH  082%=      5-min Rain = 0
KWE2 240552Z 15012KT 18/15 A2989 RMK A01 T01770146  RH  082%=      5-min Rain = 0
KWE2 240553Z 15011KT 18/15 A2989 RMK A01 T01770146  RH  082%=      5-min Rain = 0
KWE2 240554Z 15011KT 18/15 A2989 RMK A01 T01770146  RH  082%=      5-min Rain = 0
KWE2 240555Z 15013KT 18/15 A2989 RMK A01 T01760145  RH  082%=      5-min Rain = 0
KWE2 240556Z 15012KT 18/15 A2989 RMK A01 T01760145  RH  082%=      5-min Rain = 0
KWE2 240557Z 15011KT 18/15 A2989 RMK A01 T01770145  RH  082%=      5-min Rain = 0
KWE2 240558Z 15010KT 18/15 A2989 RMK A01 T01760145  RH  082%=      5-min Rain = 0
KWE2 240559Z 15011KT 18/15 A2989 RMK A01 T01760145  RH  082%=      5-min Rain = 0
KWE2 240600Z 15011KT 18/15 A2989 RMK A01 T01750145  RH  082%=      5-min Rain = 0
KWE2 240601Z 15011KT 18/14 A2989 RMK A01 T01750144  RH  082%=      5-min Rain = 0
KWE2 240602Z 15011KT 18/14 A2989 RMK A01 T01760144  RH  082%=      5-min Rain = 0
KWE2 240603Z 16011KT 18/14 A2989 RMK A01 T01760143  RH  081%=      5-min Rain = 0
KWE2 240604Z 15011KT 18/14 A2989 RMK A01 T01760143  RH  081%=      5-min Rain = 0
KWE2 240605Z 16012KT 18/14 A2989 RMK A01 T01760143  RH  081%=      5-min Rain = 0
KWE2 240606Z 15013KT 18/14 A2989 RMK A01 T01760142  RH  081%=      5-min Rain = 0
KWE2 240607Z 15012KT 18/14 A2989 RMK A01 T01760143  RH  081%=      5-min Rain = 0
KWE2 240608Z 15012KT 18/14 A2989 RMK A01 T01760142  RH  081%=      5-min Rain = 0
KWE2 240609Z 16011KT 18/14 A2989 RMK A01 T01750141  RH  080%=      5-min Rain = 0
KWE2 240610Z 16010KT 18/14 A2989 RMK A01 T01750142  RH  081%=      5-min Rain = 0
KWE2 240611Z 16011KT 18/14 A2989 RMK A01 T01750142  RH  081%=      5-min Rain = 0
KWE2 240612Z 16010KT 18/14 A2989 RMK A01 T01750142  RH  081%=      5-min Rain = 0
KWE2 240613Z 16010KT 17/14 A2989 RMK A01 T01740142  RH  081%=      5-min Rain = 0
KWE2 240614Z 15010KT 17/14 A2989 RMK A01 T01740141  RH  081%=      5-min Rain = 0
KWE2 240615Z 16010KT 17/14 A2989 RMK A01 T01740141  RH  081%=      5-min Rain = 0
KWE2 240616Z 16010KT 17/14 A2989 RMK A01 T01730141  RH  081%=      5-min Rain = 0
KWE2 240617Z 16010KT 17/14 A2989 RMK A01 T01720141  RH  082%=      5-min Rain = 0
KWE2 240618Z 17010KT 17/14 A2989 RMK A01 T01720140  RH  082%=      5-min Rain = 0
KWE2 240619Z 16010KT 17/14 A2989 RMK A01 T01720141  RH  082%=      5-min Rain = 0
KWE2 240620Z 15011KT 17/14 A2989 RMK A01 T01710139  RH  081%=      5-min Rain = 0
KWE2 240621Z 15011KT 17/14 A2989 RMK A01 T01710138  RH  081%=      5-min Rain = 0
KWE2 240622Z 15010KT 17/14 A2989 RMK A01 T01720138  RH  081%=      5-min Rain = 0
KWE2 240623Z 15010KT 17/14 A2989 RMK A01 T01710138  RH  081%=      5-min Rain = 0
KWE2 240624Z 16010KT 17/14 A2989 RMK A01 T01710137  RH  081%=      5-min Rain = 0
KWE2 240625Z 16010KT 17/14 A2989 RMK A01 T01710137  RH  081%=      5-min Rain = 0
KWE2 240626Z 17009KT 17/14 A2989 RMK A01 T01710137  RH  081%=      5-min Rain = 0
KWE2 240627Z 16009KT 17/14 A2989 RMK A01 T01700137  RH  081%=      5-min Rain = 0
KWE2 240628Z 17009KT 17/14 A2989 RMK A01 T01700136  RH  081%=      5-min Rain = 0
KWE2 240629Z 17009KT 17/14 A2989 RMK A01 T01690137  RH  081%=      5-min Rain = 0
KWE2 240630Z 17007KT 17/14 A2989 RMK A01 T01690137  RH  082%=      5-min Rain = 0
KWE2 240631Z 17008KT 17/14 A2988 RMK A01 T01680137  RH  082%=      5-min Rain = 0
KWE2 240632Z 17007KT 17/14 A2988 RMK A01 T01670136  RH  082%=      5-min Rain = 0
KWE2 240633Z 16008KT 17/14 A2989 RMK A01 T01670136  RH  082%=      5-min Rain = 0
KWE2 240634Z 16009KT 17/14 A2989 RMK A01 T01670136  RH  082%=      5-min Rain = 0
KWE2 240635Z 16010KT 17/14 A2989 RMK A01 T01670135  RH  081%=      5-min Rain = 0
KWE2 240636Z 16010KT 17/13 A2989 RMK A01 T01680134  RH  081%=      5-min Rain = 0
KWE2 240637Z 16010KT 17/13 A2989 RMK A01 T01680134  RH  080%=      5-min Rain = 0
KWE2 240638Z 16009KT 17/13 A2989 RMK A01 T01680134  RH  080%=      5-min Rain = 0
KWE2 240639Z 16010KT 17/13 A2989 RMK A01 T01680134  RH  080%=      5-min Rain = 0
KWE2 240640Z 16009KT 17/13 A2988 RMK A01 T01680134  RH  080%=      5-min Rain = 0
KWE2 240641Z 16009KT 17/13 A2988 RMK A01 T01680134  RH  080%=      5-min Rain = 0
KWE2 240642Z 15008KT 17/13 A2988 RMK A01 T01680134  RH  080%=      5-min Rain = 0
KWE2 240643Z 16008KT 17/13 A2988 RMK A01 T01680134  RH  080%=      5-min Rain = 0
KWE2 240644Z 16008KT 17/13 A2988 RMK A01 T01670134  RH  081%=      5-min Rain = 0
KWE2 240645Z 15008KT 17/14 A2988 RMK A01 T01670135  RH  081%=      5-min Rain = 0
KWE2 240646Z 15008KT 17/14 A2988 RMK A01 T01660135  RH  082%=      5-min Rain = 0
KWE2 240647Z 15007KT 17/13 A2988 RMK A01 T01660134  RH  082%=      5-min Rain = 0
KWE2 240648Z 15007KT 17/14 A2988 RMK A01 T01650135  RH  082%=      5-min Rain = 0
KWE2 240649Z 15008KT 17/14 A2988 RMK A01 T01650135  RH  082%=      5-min Rain = 0
KWE2 240650Z 15008KT 16/14 A2988 RMK A01 T01640135  RH  083%=      5-min Rain = 0
KWE2 240651Z 15008KT 16/14 A2988 RMK A01 T01640135  RH  083%=      5-min Rain = 0
KWE2 240652Z 15008KT 16/14 A2988 RMK A01 T01630135  RH  084%=      5-min Rain = 0
KWE2 240653Z 14008KT 16/14 A2988 RMK A01 T01630135  RH  084%=      5-min Rain = 0
KWE2 240654Z 14007KT 16/14 A2988 RMK A01 T01620135  RH  084%=      5-min Rain = 0
KWE2 240655Z 15007KT 16/14 A2988 RMK A01 T01620136  RH  084%=      5-min Rain = 0
KWE2 240656Z 15007KT 16/14 A2988 RMK A01 T01620136  RH  085%=      5-min Rain = 0
KWE2 240657Z 15007KT 16/14 A2988 RMK A01 T01610137  RH  086%=      5-min Rain = 0
KWE2 240658Z 15007KT 16/14 A2988 RMK A01 T01600137  RH  086%=      5-min Rain = 0
KWE2 240659Z 15007KT 16/14 A2988 RMK A01 T01590137  RH  087%=      5-min Rain = 0
KWE2 240700Z 15006KT 16/14 A2988 RMK A01 T01590137  RH  087%=      5-min Rain = 0
KWE2 240701Z 15007KT 16/14 A2988 RMK A01 T01590136  RH  087%=      5-min Rain = 0
KWE2 240702Z 14007KT 16/14 A2988 RMK A01 T01590136  RH  086%=      5-min Rain = 0
KWE2 240703Z 15007KT 16/14 A2988 RMK A01 T01600136  RH  086%=      5-min Rain = 0
KWE2 240704Z 15007KT 16/14 A2988 RMK A01 T01600136  RH  085%=      5-min Rain = 0
KWE2 240705Z 15008KT 16/14 A2988 RMK A01 T01600135  RH  085%=      5-min Rain = 0
KWE2 240706Z 14008KT 16/14 A2988 RMK A01 T01600135  RH  085%=      5-min Rain = 0
KWE2 240707Z 14008KT 16/13 A2988 RMK A01 T01610134  RH  084%=      5-min Rain = 0
KWE2 240708Z 14008KT 16/13 A2988 RMK A01 T01610134  RH  084%=      5-min Rain = 0
KWE2 240709Z 14007KT 16/13 A2988 RMK A01 T01620134  RH  084%=      5-min Rain = 0
KWE2 240710Z 14007KT 16/13 A2988 RMK A01 T01610134  RH  084%=      5-min Rain = 0
KWE2 240711Z 14007KT 16/13 A2988 RMK A01 T01610134  RH  084%=      5-min Rain = 0
KWE2 240712Z 14007KT 16/13 A2988 RMK A01 T01600134  RH  085%=      5-min Rain = 0
KWE2 240713Z 14007KT 16/14 A2988 RMK A01 T01600135  RH  085%=      5-min Rain = 0
KWE2 240714Z 14007KT 16/14 A2988 RMK A01 T01600135  RH  085%=      5-min Rain = 0
KWE2 240715Z 14007KT 16/14 A2988 RMK A01 T01590135  RH  085%=      5-min Rain = 0
KWE2 240716Z 13007KT 16/14 A2988 RMK A01 T01590135  RH  086%=      5-min Rain = 0
KWE2 240717Z 13007KT 16/14 A2988 RMK A01 T01580135  RH  086%=      5-min Rain = 0
KWE2 240718Z 13007KT 16/14 A2988 RMK A01 T01580136  RH  087%=      5-min Rain = 0
KWE2 240719Z 13007KT 16/14 A2988 RMK A01 T01580136  RH  087%=      5-min Rain = 0
KWE2 240720Z 13007KT 16/14 A2988 RMK A01 T01570136  RH  087%=      5-min Rain = 0
KWE2 240721Z 13007KT 16/14 A2988 RMK A01 T01590136  RH  087%=      5-min Rain = 0
KWE2 240722Z 13008KT 16/14 A2988 RMK A01 T01590136  RH  086%=      5-min Rain = 0
KWE2 240723Z 12007KT 16/14 A2988 RMK A01 T01600136  RH  086%=      5-min Rain = 0
KWE2 240724Z 13007KT 16/14 A2988 RMK A01 T01600135  RH  085%=      5-min Rain = 0
KWE2 240725Z 13007KT 16/14 A2988 RMK A01 T01600135  RH  085%=      5-min Rain = 0
KWE2 240726Z 13008KT 16/14 A2988 RMK A01 T01600135  RH  085%=      5-min Rain = 0
KWE2 240727Z 13007KT 16/14 A2988 RMK A01 T01600135  RH  085%=      5-min Rain = 0
KWE2 240728Z 13007KT 16/14 A2988 RMK A01 T01600135  RH  085%=      5-min Rain = 0
KWE2 240729Z 13006KT 16/14 A2988 RMK A01 T01600135  RH  085%=      5-min Rain = 0
KWE2 240730Z 13007KT 16/14 A2988 RMK A01 T01600135  RH  085%=      5-min Rain = 0
KWE2 240731Z 13007KT 16/14 A2988 RMK A01 T01600135  RH  085%=      5-min Rain = 0
KWE2 240732Z 13007KT 16/14 A2988 RMK A01 T01590135  RH  085%=      5-min Rain = 0
KWE2 240733Z 12006KT 16/14 A2988 RMK A01 T01590136  RH  086%=      5-min Rain = 0
KWE2 240734Z 12007KT 16/14 A2988 RMK A01 T01590136  RH  086%=      5-min Rain = 0
KWE2 240735Z 13006KT 16/14 A2988 RMK A01 T01590136  RH  087%=      5-min Rain = 0
KWE2 240736Z 13006KT 16/14 A2988 RMK A01 T01580137  RH  087%=      5-min Rain = 0
KWE2 240737Z 13006KT 16/14 A2988 RMK A01 T01580136  RH  087%=      5-min Rain = 0
KWE2 240738Z 13005KT 16/14 A2988 RMK A01 T01590136  RH  086%=      5-min Rain = 0
KWE2 240739Z 14005KT 16/14 A2988 RMK A01 T01590136  RH  086%=      5-min Rain = 0
KWE2 240740Z 14005KT 16/14 A2988 RMK A01 T01590136  RH  086%=      5-min Rain = 0
KWE2 240741Z 14005KT 16/14 A2988 RMK A01 T01580136  RH  087%=      5-min Rain = 0
KWE2 240742Z 14005KT 16/14 A2988 RMK A01 T01580137  RH  087%=      5-min Rain = 0
KWE2 240743Z 15005KT 16/14 A2988 RMK A01 T01570137  RH  088%=      5-min Rain = 0
KWE2 240744Z 14005KT 16/14 A2988 RMK A01 T01560137  RH  088%=      5-min Rain = 0
KWE2 240745Z 15005KT 16/14 A2988 RMK A01 T01560137  RH  089%=      5-min Rain = 0
KWE2 240746Z 14005KT 16/14 A2988 RMK A01 T01550138  RH  089%=      5-min Rain = 0
KWE2 240747Z 14005KT 16/14 A2988 RMK A01 T01550138  RH  090%=      5-min Rain = 0
KWE2 240748Z 14005KT 16/14 A2988 RMK A01 T01550138  RH  090%=      5-min Rain = 0
KWE2 240749Z 14005KT 16/14 A2988 RMK A01 T01550138  RH  090%=      5-min Rain = 0
KWE2 240750Z 14005KT 15/14 A2988 RMK A01 T01540138  RH  090%=      5-min Rain = 0
KWE2 240751Z 14005KT 15/14 A2988 RMK A01 T01540138  RH  090%=      5-min Rain = 0
KWE2 240752Z 14006KT 15/14 A2988 RMK A01 T01540138  RH  090%=      5-min Rain = 0
KWE2 240753Z 14005KT 15/14 A2988 RMK A01 T01540138  RH  090%=      5-min Rain = 0
KWE2 240754Z 14005KT 15/14 A2988 RMK A01 T01540138  RH  090%=      5-min Rain = 0
KWE2 240755Z 14006KT 15/14 A2988 RMK A01 T01540139  RH  091%=      5-min Rain = 0
KWE2 240756Z 14006KT 15/14 A2988 RMK A01 T01530138  RH  091%=      5-min Rain = 0
KWE2 240757Z 14006KT 15/14 A2987 RMK A01 T01530138  RH  091%=      5-min Rain = 0
KWE2 240758Z 14005KT 15/14 A2987 RMK A01 T01530138  RH  091%=      5-min Rain = 0
KWE2 240759Z 13005KT 15/14 A2987 RMK A01 T01530138  RH  091%=      5-min Rain = 0
KWE2 240800Z 13006KT 15/14 A2987 RMK A01 T01530138  RH  091%=      5-min Rain = 0
KWE2 240801Z 13005KT 15/14 A2987 RMK A01 T01520138  RH  091%=      5-min Rain = 0
KWE2 240802Z 13005KT 15/14 A2987 RMK A01 T01520138  RH  091%=      5-min Rain = 0
KWE2 240803Z 13005KT 15/14 A2987 RMK A01 T01520138  RH  091%=      5-min Rain = 0
KWE2 240804Z 13005KT 15/14 A2987 RMK A01 T01510139  RH  092%=      5-min Rain = 0
KWE2 240805Z 13005KT 15/14 A2987 RMK A01 T01510140  RH  093%=      5-min Rain = 0
KWE2 240806Z 13005KT 15/14 A2987 RMK A01 T01510141  RH  094%=      5-min Rain = 0
KWE2 240807Z 13005KT 15/14 A2987 RMK A01 T01500141  RH  094%=      5-min Rain = 0
KWE2 240808Z 12006KT 15/14 A2987 RMK A01 T01500141  RH  095%=      5-min Rain = 0
KWE2 240809Z 12005KT 15/14 A2987 RMK A01 T01500142  RH  095%=      5-min Rain = 0
KWE2 240810Z 12005KT 15/14 A2987 RMK A01 T01490141  RH  095%=      5-min Rain = 0
KWE2 240811Z 12005KT 15/14 A2987 RMK A01 T01490140  RH  095%=      5-min Rain = 0
KWE2 240812Z 12005KT 15/14 A2987 RMK A01 T01480140  RH  095%=      5-min Rain = 0
KWE2 240813Z 12005KT 15/14 A2987 RMK A01 T01480141  RH  096%=      5-min Rain = 0
KWE2 240814Z 12005KT 15/14 A2987 RMK A01 T01470140  RH  096%=      5-min Rain = 0
KWE2 240815Z 12004KT 15/14 A2987 RMK A01 T01470141  RH  096%=      5-min Rain = 0
KWE2 240816Z 13004KT 15/14 A2987 RMK A01 T01470141  RH  097%=      5-min Rain = 0
KWE2 240817Z 13003KT 15/14 A2987 RMK A01 T01470142  RH  097%=      5-min Rain = 0
KWE2 240818Z 13003KT 15/14 A2987 RMK A01 T01460141  RH  096%=      5-min Rain = 0
KWE2 240819Z 13003KT 15/14 A2987 RMK A01 T01460141  RH  096%=      5-min Rain = 0
KWE2 240820Z 13003KT 15/14 A2987 RMK A01 T01460141  RH  096%=      5-min Rain = 0
KWE2 240821Z 13003KT 15/14 A2987 RMK A01 T01460140  RH  096%=      5-min Rain = 0
KWE2 240822Z 12003KT 15/14 A2987 RMK A01 T01470140  RH  096%=      5-min Rain = 0
KWE2 240823Z 13003KT 15/14 A2987 RMK A01 T01460139  RH  095%=      5-min Rain = 0
KWE2 240824Z 13003KT 15/14 A2987 RMK A01 T01460139  RH  095%=      5-min Rain = 0
KWE2 240825Z 13002KT 15/14 A2987 RMK A01 T01460139  RH  096%=      5-min Rain = 0
KWE2 240826Z 13002KT 15/14 A2987 RMK A01 T01460140  RH  096%=      5-min Rain = 0
KWE2 240827Z 14002KT 15/14 A2988 RMK A01 T01450141  RH  097%=      5-min Rain = 0
KWE2 240828Z 15001KT 15/14 A2988 RMK A01 T01460142  RH  097%=      5-min Rain = 0
KWE2 240829Z 14002KT 15/14 A2988 RMK A01 T01460142  RH  097%=      5-min Rain = 0
KWE2 240830Z 13001KT 15/14 A2988 RMK A01 T01460142  RH  097%=      5-min Rain = 0
KWE2 240831Z 14001KT 15/14 A2987 RMK A01 T01460142  RH  098%=      5-min Rain = 0
KWE2 240832Z 16001KT 15/14 A2987 RMK A01 T01460143  RH  098%=      5-min Rain = 0
KWE2 240833Z 18001KT 15/14 A2987 RMK A01 T01460143  RH  098%=      5-min Rain = 0
KWE2 240834Z 18001KT 15/14 A2987 RMK A01 T01460143  RH  098%=      5-min Rain = 0
KWE2 240835Z 18001KT 15/14 A2987 RMK A01 T01470142  RH  097%=      5-min Rain = 0
KWE2 240836Z 18000KT 15/14 A2987 RMK A01 T01470139  RH  095%=      5-min Rain = 0
KWE2 240837Z 22000KT 15/14 A2987 RMK A01 T01460140  RH  096%=      5-min Rain = 0
KWE2 240838Z 19000KT 15/14 A2987 RMK A01 T01460142  RH  097%=      5-min Rain = 0
KWE2 240839Z 19000KT 15/14 A2987 RMK A01 T01470143  RH  097%=      5-min Rain = 0
KWE2 240840Z 15000KT 15/14 A2987 RMK A01 T01470141  RH  096%=      5-min Rain = 0
KWE2 240841Z 12001KT 15/14 A2987 RMK A01 T01470141  RH  096%=      5-min Rain = 0
KWE2 240842Z 11000KT 15/14 A2987 RMK A01 T01470141  RH  096%=      5-min Rain = 0
KWE2 240843Z 12001KT 15/14 A2987 RMK A01 T01470139  RH  095%=      5-min Rain = 0
KWE2 240844Z 14000KT 15/14 A2987 RMK A01 T01470139  RH  095%=      5-min Rain = 0
KWE2 240845Z 15000KT 15/14 A2987 RMK A01 T01470138  RH  094%=      5-min Rain = 0
KWE2 240846Z 13000KT 15/14 A2987 RMK A01 T01460137  RH  094%=      5-min Rain = 0
KWE2 240847Z 13001KT 15/14 A2987 RMK A01 T01460139  RH  096%=      5-min Rain = 0
KWE2 240848Z 12001KT 15/14 A2987 RMK A01 T01450141  RH  097%=      5-min Rain = 0
KWE2 240849Z 12001KT 15/14 A2987 RMK A01 T01450143  RH  099%=      5-min Rain = 0
KWE2 240850Z 12002KT 15/15 A2987 RMK A01 T01450145  RH  100%=      5-min Rain = 0
KWE2 240851Z 12002KT 15/15 A2987 RMK A01 T01460145  RH  099%=      5-min Rain = 0
KWE2 240852Z 12002KT 15/14 A2987 RMK A01 T01470143  RH  098%=      5-min Rain = 0
KWE2 240853Z 12002KT 15/14 A2987 RMK A01 T01470142  RH  097%=      5-min Rain = 0
KWE2 240854Z 13002KT 15/14 A2987 RMK A01 T01480140  RH  095%=      5-min Rain = 0
KWE2 240855Z 13002KT 15/14 A2987 RMK A01 T01490138  RH  093%=      5-min Rain = 0
KWE2 240856Z 14002KT 15/14 A2987 RMK A01 T01490137  RH  092%=      5-min Rain = 0
KWE2 240857Z 13002KT 15/14 A2987 RMK A01 T01490136  RH  092%=      5-min Rain = 0
KWE2 240858Z 13003KT 15/14 A2987 RMK A01 T01480135  RH  092%=      5-min Rain = 0
KWE2 240859Z 14003KT 15/13 A2987 RMK A01 T01480134  RH  091%=      5-min Rain = 0
KWE2 240900Z 14003KT 15/13 A2987 RMK A01 T01470133  RH  091%=      5-min Rain = 0
KWE2 240901Z 15003KT 15/13 A2987 RMK A01 T01460133  RH  092%=      5-min Rain = 0
KWE2 240902Z 14004KT 15/14 A2987 RMK A01 T01460137  RH  094%=      5-min Rain = 0
KWE2 240903Z 14004KT 15/14 A2987 RMK A01 T01450136  RH  094%=      5-min Rain = 0
KWE2 240904Z 13004KT 15/14 A2987 RMK A01 T01450136  RH  095%=      5-min Rain = 0
KWE2 240905Z 13005KT 14/14 A2987 RMK A01 T01440138  RH  096%=      5-min Rain = 0
KWE2 240906Z 13005KT 14/14 A2987 RMK A01 T01440139  RH  097%=      5-min Rain = 0
KWE2 240907Z 13005KT 14/14 A2987 RMK A01 T01430139  RH  098%=      5-min Rain = 0
KWE2 240908Z 13005KT 14/14 A2987 RMK A01 T01420139  RH  098%=      5-min Rain = 0
KWE2 240909Z 13005KT 14/14 A2987 RMK A01 T01410139  RH  099%=      5-min Rain = 0
KWE2 240910Z 13005KT 14/14 A2987 RMK A01 T01410141  RH  100%=      5-min Rain = 0
KWE2 240911Z 14004KT 14/14 A2987 RMK A01 T01410141  RH  100%=      5-min Rain = 0
KWE2 240912Z 14004KT 14/14 A2987 RMK A01 T01400140  RH  100%=      5-min Rain = 0
KWE2 240913Z 14004KT 14/14 A2987 RMK A01 T01400140  RH  100%=      5-min Rain = 0
KWE2 240914Z 14004KT 14/14 A2987 RMK A01 T01390139  RH  100%=      5-min Rain = 0
KWE2 240915Z 14004KT 14/14 A2987 RMK A01 T01390139  RH  100%=      5-min Rain = 0
KWE2 240916Z 14005KT 14/14 A2987 RMK A01 T01390139  RH  100%=      5-min Rain = 0
KWE2 240917Z 13006KT 14/14 A2987 RMK A01 T01390139  RH  100%=      5-min Rain = 0
KWE2 240918Z 13006KT 14/14 A2987 RMK A01 T01390139  RH  100%=      5-min Rain = 0
KWE2 240919Z 14006KT 14/14 A2987 RMK A01 T01390139  RH  100%=      5-min Rain = 0
KWE2 240920Z 14006KT 14/14 A2987 RMK A01 T01390139  RH  100%=      5-min Rain = 0
KWE2 240921Z 14006KT 14/14 A2987 RMK A01 T01390139  RH  100%=      5-min Rain = 0
KWE2 240922Z 14006KT 14/14 A2987 RMK A01 T01390139  RH  100%=      5-min Rain = 0
KWE2 240923Z 14006KT 14/14 A2987 RMK A01 T01390139  RH  100%=      5-min Rain = 0
KWE2 240924Z 14006KT 14/14 A2987 RMK A01 T01390139  RH  100%=      5-min Rain = 0
KWE2 240925Z 13007KT 14/14 A2987 RMK A01 T01390139  RH  100%=      5-min Rain = 0
KWE2 240926Z 14007KT 14/14 A2987 RMK A01 T01400140  RH  100%=      5-min Rain = 0
KWE2 240927Z 14008KT 14/14 A2987 RMK A01 T01400140  RH  100%=      5-min Rain = 0
KWE2 240928Z 14007KT 14/14 A2987 RMK A01 T01410141  RH  100%=      5-min Rain = 0
KWE2 240929Z 14008KT 14/14 A2987 RMK A01 T01410142  RH  100%=      5-min Rain = 0
KWE2 240930Z 14007KT 14/14 A2987 RMK A01 T01420142  RH  100%=      5-min Rain = 0
KWE2 240931Z 14007KT 14/14 A2986 RMK A01 T01430143  RH  100%=      5-min Rain = 0
KWE2 240932Z 14007KT 14/14 A2986 RMK A01 T01440144  RH  100%=      5-min Rain = 0
KWE2 240933Z 14006KT 15/15 A2986 RMK A01 T01450145  RH  100%=      5-min Rain = 0
KWE2 240934Z 14006KT 14/15 A2986 RMK A01 T01440145  RH  100%=      5-min Rain = 0
KWE2 240935Z 14007KT 15/15 A2986 RMK A01 T01450145  RH  100%=      5-min Rain = 0
KWE2 240936Z 14007KT 15/15 A2986 RMK A01 T01450145  RH  100%=      5-min Rain = 0
KWE2 240937Z 14008KT 15/15 A2987 RMK A01 T01460145  RH  099%=      5-min Rain = 0
KWE2 240938Z 14007KT 15/14 A2987 RMK A01 T01470144  RH  098%=      5-min Rain = 0
KWE2 240939Z 14007KT 15/14 A2987 RMK A01 T01470143  RH  097%=      5-min Rain = 0
KWE2 240940Z 14006KT 15/14 A2987 RMK A01 T01470143  RH  097%=      5-min Rain = 0
KWE2 240941Z 14006KT 15/14 A2987 RMK A01 T01470143  RH  097%=      5-min Rain = 0
KWE2 240942Z 14006KT 15/14 A2987 RMK A01 T01470144  RH  098%=      5-min Rain = 0
KWE2 240943Z 14006KT 15/14 A2986 RMK A01 T01470144  RH  098%=      5-min Rain = 0
KWE2 240944Z 14006KT 15/14 A2986 RMK A01 T01470144  RH  098%=      5-min Rain = 0
KWE2 240945Z 14006KT 15/14 A2986 RMK A01 T01460144  RH  098%=      5-min Rain = 0
KWE2 240946Z 14006KT 15/14 A2986 RMK A01 T01460144  RH  099%=      5-min Rain = 0
KWE2 240947Z 14005KT 15/14 A2986 RMK A01 T01460144  RH  099%=      5-min Rain = 0
KWE2 240948Z 14006KT 15/14 A2986 RMK A01 T01460144  RH  099%=      5-min Rain = 0
KWE2 240949Z 13006KT 15/14 A2986 RMK A01 T01460144  RH  099%=      5-min Rain = 0
KWE2 240950Z 13006KT 15/14 A2986 RMK A01 T01460144  RH  099%=      5-min Rain = 0
KWE2 240951Z 13006KT 15/15 A2986 RMK A01 T01470145  RH  099%=      5-min Rain = 0
KWE2 240952Z 13005KT 15/14 A2986 RMK A01 T01460144  RH  098%=      5-min Rain = 0
KWE2 240953Z 13005KT 15/14 A2986 RMK A01 T01460144  RH  098%=      5-min Rain = 0
KWE2 240954Z 13005KT 15/14 A2986 RMK A01 T01470144  RH  099%=      5-min Rain = 0
KWE2 240955Z 13005KT 15/14 A2986 RMK A01 T01460144  RH  099%=      5-min Rain = 0
KWE2 240956Z 13005KT 15/15 A2986 RMK A01 T01460145  RH  099%=      5-min Rain = 0
KWE2 240957Z 12004KT 15/14 A2986 RMK A01 T01460144  RH  099%=      5-min Rain = 0
KWE2 240958Z 12004KT 15/15 A2986 RMK A01 T01460145  RH  099%=      5-min Rain = 0
KWE2 240959Z 12004KT 15/15 A2986 RMK A01 T01460145  RH  099%=      5-min Rain = 0
KWE2 241000Z 12004KT 15/15 A2986 RMK A01 T01460145  RH  099%=      5-min Rain = 0
KWE2 241001Z 12004KT 15/14 A2986 RMK A01 T01450144  RH  099%=      5-min Rain = 0
KWE2 241002Z 13004KT 15/14 A2986 RMK A01 T01450144  RH  099%=      5-min Rain = 0
KWE2 241003Z 12005KT 15/14 A2986 RMK A01 T01450144  RH  100%=      5-min Rain = 0
KWE2 241004Z 13005KT 15/15 A2986 RMK A01 T01450145  RH  100%=      5-min Rain = 0
KWE2 241005Z 12005KT 15/15 A2986 RMK A01 T01450145  RH  100%=      5-min Rain = 0
KWE2 241006Z 12005KT 14/14 A2986 RMK A01 T01440144  RH  100%=      5-min Rain = 0
KWE2 241007Z 12005KT 14/14 A2986 RMK A01 T01440144  RH  100%=      5-min Rain = 0
KWE2 241008Z 12005KT 14/14 A2986 RMK A01 T01430143  RH  100%=      5-min Rain = 0
KWE2 241009Z 12005KT 14/14 A2986 RMK A01 T01430143  RH  100%=      5-min Rain = 0
KWE2 241010Z 12005KT 14/14 A2986 RMK A01 T01420143  RH  100%=      5-min Rain = 0
KWE2 241011Z 12005KT 14/14 A2986 RMK A01 T01420142  RH  100%=      5-min Rain = 0
KWE2 241012Z 12005KT 14/14 A2986 RMK A01 T01420142  RH  100%=      5-min Rain = 0
KWE2 241013Z 13006KT 14/14 A2986 RMK A01 T01430143  RH  100%=      5-min Rain = 0
KWE2 241014Z 13007KT 14/14 A2986 RMK A01 T01440144  RH  100%=      5-min Rain = 0
KWE2 241015Z 13007KT 15/15 A2986 RMK A01 T01460146  RH  100%=      5-min Rain = 0
KWE2 241016Z 14007KT 15/15 A2986 RMK A01 T01480147  RH  100%=      5-min Rain = 0
KWE2 241017Z 14009KT 15/15 A2986 RMK A01 T01490145  RH  097%=      5-min Rain = 0
KWE2 241018Z 14008KT 15/14 A2986 RMK A01 T01520142  RH  094%=      5-min Rain = 0
KWE2 241019Z 14009KT 15/14 A2986 RMK A01 T01530139  RH  091%=      5-min Rain = 0
KWE2 241020Z 14009KT 15/14 A2986 RMK A01 T01530137  RH  090%=      5-min Rain = 0
KWE2 241021Z 14010KT 15/14 A2986 RMK A01 T01540136  RH  089%=      5-min Rain = 0
KWE2 241022Z 15010KT 16/14 A2986 RMK A01 T01560135  RH  088%=      5-min Rain = 0
KWE2 241023Z 15010KT 16/13 A2986 RMK A01 T01570134  RH  086%=      5-min Rain = 0
KWE2 241024Z 15010KT 16/13 A2986 RMK A01 T01570133  RH  086%=      5-min Rain = 0
KWE2 241025Z 15010KT 16/13 A2986 RMK A01 T01580133  RH  085%=      5-min Rain = 0
KWE2 241026Z 15010KT 16/13 A2986 RMK A01 T01590133  RH  085%=      5-min Rain = 0
KWE2 241027Z 15009KT 16/13 A2986 RMK A01 T01590132  RH  084%=      5-min Rain = 0
KWE2 241028Z 15009KT 16/13 A2986 RMK A01 T01600132  RH  084%=      5-min Rain = 0
KWE2 241029Z 14010KT 16/13 A2986 RMK A01 T01590132  RH  084%=      5-min Rain = 0
KWE2 241030Z 15009KT 16/13 A2986 RMK A01 T01590132  RH  084%=      5-min Rain = 0
KWE2 241031Z 15009KT 16/13 A2986 RMK A01 T01590132  RH  084%=      5-min Rain = 0
KWE2 241032Z 14008KT 16/13 A2986 RMK A01 T01580132  RH  084%=      5-min Rain = 0
KWE2 241033Z 14009KT 16/13 A2986 RMK A01 T01580132  RH  084%=      5-min Rain = 0
KWE2 241034Z 14009KT 16/13 A2986 RMK A01 T01580132  RH  084%=      5-min Rain = 0
KWE2 241035Z 15008KT 16/13 A2986 RMK A01 T01580132  RH  084%=      5-min Rain = 0
KWE2 241036Z 14009KT 16/13 A2986 RMK A01 T01580132  RH  084%=      5-min Rain = 0
KWE2 241037Z 14008KT 16/13 A2986 RMK A01 T01580132  RH  084%=      5-min Rain = 0
KWE2 241038Z 14007KT 16/13 A2986 RMK A01 T01580132  RH  084%=      5-min Rain = 0
KWE2 241039Z 15008KT 16/13 A2986 RMK A01 T01580131  RH  084%=      5-min Rain = 0
KWE2 241040Z 15007KT 16/13 A2986 RMK A01 T01580131  RH  084%=      5-min Rain = 0
KWE2 241041Z 15008KT 16/13 A2987 RMK A01 T01580131  RH  084%=      5-min Rain = 0
KWE2 241042Z 15009KT 16/13 A2987 RMK A01 T01580131  RH  084%=      5-min Rain = 0
KWE2 241043Z 14009KT 16/13 A2987 RMK A01 T01580132  RH  084%=      5-min Rain = 0
KWE2 241044Z 15008KT 16/13 A2986 RMK A01 T01580131  RH  084%=      5-min Rain = 0
KWE2 241045Z 15009KT 16/13 A2986 RMK A01 T01580131  RH  084%=      5-min Rain = 0
KWE2 241046Z 15009KT 16/13 A2986 RMK A01 T01590131  RH  083%=      5-min Rain = 0
KWE2 241047Z 15008KT 16/13 A2986 RMK A01 T01590130  RH  083%=      5-min Rain = 0
KWE2 241048Z 15008KT 16/13 A2986 RMK A01 T01590131  RH  083%=      5-min Rain = 0
KWE2 241049Z 14008KT 16/13 A2986 RMK A01 T01590130  RH  083%=      5-min Rain = 0
KWE2 241050Z 15008KT 16/13 A2986 RMK A01 T01590131  RH  083%=      5-min Rain = 0
KWE2 241051Z 15007KT 16/13 A2986 RMK A01 T01590131  RH  083%=      5-min Rain = 0
KWE2 241052Z 15008KT 16/13 A2986 RMK A01 T01590130  RH  083%=      5-min Rain = 0
KWE2 241053Z 15008KT 16/13 A2986 RMK A01 T01590130  RH  083%=      5-min Rain = 0
KWE2 241054Z 16010KT 16/13 A2987 RMK A01 T01590130  RH  083%=      5-min Rain = 0
KWE2 241055Z 15009KT 16/13 A2987 RMK A01 T01600130  RH  082%=      5-min Rain = 0
KWE2 241056Z 15009KT 16/13 A2987 RMK A01 T01610129  RH  081%=      5-min Rain = 0
KWE2 241057Z 15008KT 16/13 A2987 RMK A01 T01620129  RH  081%=      5-min Rain = 0
KWE2 241058Z 15008KT 16/13 A2987 RMK A01 T01610129  RH  081%=      5-min Rain = 0
KWE2 241059Z 15010KT 16/13 A2987 RMK A01 T01610129  RH  081%=      5-min Rain = 0
KWE2 241100Z 15010KT 16/13 A2987 RMK A01 T01620128  RH  080%=      5-min Rain = 0
KWE2 241101Z 15011KT 16/13 A2987 RMK A01 T01630128  RH  080%=      5-min Rain = 0
KWE2 241102Z 15010KT 16/13 A2987 RMK A01 T01640128  RH  079%=      5-min Rain = 0
KWE2 241103Z 15010KT 16/13 A2987 RMK A01 T01640128  RH  079%=      5-min Rain = 0
KWE2 241104Z 16011KT 16/13 A2987 RMK A01 T01640128  RH  079%=      5-min Rain = 0
KWE2 241105Z 16011KT 17/13 A2987 RMK A01 T01650128  RH  079%=      5-min Rain = 0
KWE2 241106Z 16010KT 17/13 A2987 RMK A01 T01650127  RH  078%=      5-min Rain = 0
KWE2 241107Z 16011KT 17/13 A2987 RMK A01 T01660127  RH  078%=      5-min Rain = 0
KWE2 241108Z 16009KT 17/13 A2987 RMK A01 T01660127  RH  078%=      5-min Rain = 0
KWE2 241109Z 16010KT 17/13 A2987 RMK A01 T01660127  RH  078%=      5-min Rain = 0
KWE2 241110Z 16009KT 17/13 A2987 RMK A01 T01650127  RH  078%=      5-min Rain = 0
KWE2 241111Z 15010KT 16/13 A2987 RMK A01 T01640127  RH  079%=      5-min Rain = 0
KWE2 241112Z 16009KT 16/13 A2987 RMK A01 T01640127  RH  079%=      5-min Rain = 0
KWE2 241113Z 16009KT 16/13 A2987 RMK A01 T01640127  RH  079%=      5-min Rain = 0
KWE2 241114Z 16009KT 16/13 A2987 RMK A01 T01630128  RH  079%=      5-min Rain = 0
KWE2 241115Z 16009KT 16/13 A2987 RMK A01 T01620128  RH  080%=      5-min Rain = 0
KWE2 241116Z 16009KT 16/13 A2987 RMK A01 T01620128  RH  080%=      5-min Rain = 0
KWE2 241117Z 15008KT 16/13 A2987 RMK A01 T01610128  RH  080%=      5-min Rain = 0
KWE2 241118Z 15008KT 16/13 A2987 RMK A01 T01610128  RH  081%=      5-min Rain = 0
KWE2 241119Z 16008KT 16/13 A2987 RMK A01 T01610128  RH  081%=      5-min Rain = 0
KWE2 241120Z 15007KT 16/13 A2987 RMK A01 T01600128  RH  081%=      5-min Rain = 0
KWE2 241121Z 15007KT 16/13 A2987 RMK A01 T01600128  RH  082%=      5-min Rain = 0
KWE2 241122Z 15006KT 16/13 A2987 RMK A01 T01590129  RH  082%=      5-min Rain = 0
KWE2 241123Z 15006KT 16/13 A2987 RMK A01 T01580129  RH  083%=      5-min Rain = 0
KWE2 241124Z 15007KT 16/13 A2987 RMK A01 T01570129  RH  084%=      5-min Rain = 0
KWE2 241125Z 15007KT 16/13 A2987 RMK A01 T01560129  RH  084%=      5-min Rain = 0
KWE2 241126Z 14007KT 16/13 A2987 RMK A01 T01550129  RH  085%=      5-min Rain = 0
KWE2 241127Z 15007KT 16/13 A2987 RMK A01 T01550130  RH  085%=      5-min Rain = 0
KWE2 241128Z 14007KT 15/13 A2987 RMK A01 T01540130  RH  085%=      5-min Rain = 0
KWE2 241129Z 15007KT 15/13 A2987 RMK A01 T01540130  RH  086%=      5-min Rain = 0
KWE2 241130Z 15006KT 15/13 A2987 RMK A01 T01530130  RH  086%=      5-min Rain = 0
KWE2 241131Z 15006KT 15/13 A2987 RMK A01 T01530130  RH  086%=      5-min Rain = 0
KWE2 241132Z 15006KT 15/13 A2987 RMK A01 T01520130  RH  087%=      5-min Rain = 0
KWE2 241133Z 15005KT 15/13 A2987 RMK A01 T01520131  RH  087%=      5-min Rain = 0
KWE2 241134Z 15006KT 15/13 A2987 RMK A01 T01510130  RH  088%=      5-min Rain = 0
KWE2 241135Z 14006KT 15/13 A2987 RMK A01 T01500131  RH  088%=      5-min Rain = 0
KWE2 241136Z 14006KT 15/13 A2987 RMK A01 T01490131  RH  089%=      5-min Rain = 0
KWE2 241137Z 14006KT 15/13 A2987 RMK A01 T01480131  RH  089%=      5-min Rain = 0
KWE2 241138Z 14007KT 15/13 A2987 RMK A01 T01480131  RH  090%=      5-min Rain = 0
KWE2 241139Z 15007KT 15/13 A2987 RMK A01 T01480132  RH  090%=      5-min Rain = 0
KWE2 241140Z 15007KT 15/13 A2987 RMK A01 T01480132  RH  090%=      5-min Rain = 0
KWE2 241141Z 15007KT 15/13 A2987 RMK A01 T01480132  RH  090%=      5-min Rain = 0
KWE2 241142Z 15007KT 15/13 A2987 RMK A01 T01470133  RH  091%=      5-min Rain = 0
KWE2 241143Z 15007KT 15/13 A2987 RMK A01 T01470134  RH  092%=      5-min Rain = 0
KWE2 241144Z 15007KT 15/14 A2987 RMK A01 T01470135  RH  092%=      5-min Rain = 0
KWE2 241145Z 15007KT 15/14 A2986 RMK A01 T01470135  RH  093%=      5-min Rain = 0
KWE2 241146Z 15007KT 15/14 A2986 RMK A01 T01470136  RH  093%=      5-min Rain = 0
KWE2 241147Z 15008KT 15/14 A2986 RMK A01 T01470136  RH  093%=      5-min Rain = 0
KWE2 241148Z 15008KT 15/14 A2986 RMK A01 T01470136  RH  093%=      5-min Rain = 0
KWE2 241149Z 15008KT 15/14 A2986 RMK A01 T01470136  RH  093%=      5-min Rain = 0
KWE2 241150Z 15008KT 15/14 A2986 RMK A01 T01470136  RH  093%=      5-min Rain = 0
KWE2 241151Z 15008KT 15/14 A2986 RMK A01 T01470135  RH  093%=      5-min Rain = 0
KWE2 241152Z 15008KT 15/13 A2986 RMK A01 T01480134  RH  091%=      5-min Rain = 0
KWE2 241153Z 15008KT 15/13 A2986 RMK A01 T01490133  RH  090%=      5-min Rain = 0
KWE2 241154Z 15008KT 15/13 A2986 RMK A01 T01500132  RH  089%=      5-min Rain = 0
KWE2 241155Z 15008KT 15/13 A2986 RMK A01 T01500132  RH  089%=      5-min Rain = 0
KWE2 241156Z 15008KT 15/13 A2986 RMK A01 T01500132  RH  089%=      5-min Rain = 0
KWE2 241157Z 15008KT 15/13 A2986 RMK A01 T01500132  RH  089%=      5-min Rain = 0
KWE2 241158Z 15008KT 15/13 A2986 RMK A01 T01500133  RH  089%=      5-min Rain = 0
KWE2 241159Z 15008KT 15/13 A2986 RMK A01 T01500133  RH  090%=      5-min Rain = 0
KWE2 241200Z 15008KT 15/13 A2986 RMK A01 T01490133  RH  090%=      5-min Rain = 0
KWE2 241201Z 15008KT 15/13 A2986 RMK A01 T01490133  RH  090%=      5-min Rain = 0
KWE2 241202Z 15008KT 15/13 A2986 RMK A01 T01500133  RH  090%=      5-min Rain = 0
KWE2 241203Z 15008KT 15/13 A2986 RMK A01 T01500133  RH  089%=      5-min Rain = 0
KWE2 241204Z 15008KT 15/13 A2986 RMK A01 T01510133  RH  089%=      5-min Rain = 0
KWE2 241205Z 15008KT 15/13 A2986 RMK A01 T01510133  RH  089%=      5-min Rain = 0
KWE2 241206Z 16008KT 15/13 A2986 RMK A01 T01510133  RH  089%=      5-min Rain = 0
KWE2 241207Z 16008KT 15/13 A2986 RMK A01 T01510132  RH  088%=      5-min Rain = 0
KWE2 241208Z 15009KT 15/13 A2986 RMK A01 T01530132  RH  087%=      5-min Rain = 0
KWE2 241209Z 15008KT 15/13 A2986 RMK A01 T01540131  RH  086%=      5-min Rain = 0
KWE2 241210Z 16008KT 15/13 A2986 RMK A01 T01540131  RH  086%=      5-min Rain = 0
KWE2 241211Z 16008KT 16/13 A2986 RMK A01 T01550131  RH  086%=      5-min Rain = 0
KWE2 241212Z 16008KT 16/13 A2986 RMK A01 T01550131  RH  085%=      5-min Rain = 0
KWE2 241213Z 16008KT 16/13 A2986 RMK A01 T01560130  RH  085%=      5-min Rain = 0
KWE2 241214Z 16009KT 16/13 A2986 RMK A01 T01560130  RH  084%=      5-min Rain = 0
KWE2 241215Z 16008KT 16/13 A2986 RMK A01 T01570130  RH  084%=      5-min Rain = 0
KWE2 241216Z 16009KT 16/13 A2986 RMK A01 T01570130  RH  084%=      5-min Rain = 0
KWE2 241217Z 16009KT 16/13 A2986 RMK A01 T01580130  RH  084%=      5-min Rain = 0
KWE2 241218Z 16009KT 16/13 A2986 RMK A01 T01590130  RH  083%=      5-min Rain = 0
KWE2 241219Z 16008KT 16/13 A2986 RMK A01 T01590130  RH  083%=      5-min Rain = 0
KWE2 241220Z 16009KT 16/13 A2986 RMK A01 T01600131  RH  083%=      5-min Rain = 0
KWE2 241221Z 16009KT 16/13 A2986 RMK A01 T01600130  RH  082%=      5-min Rain = 0
KWE2 241222Z 16008KT 16/13 A2986 RMK A01 T01610130  RH  082%=      5-min Rain = 0
KWE2 241223Z 16009KT 16/13 A2986 RMK A01 T01610130  RH  082%=      5-min Rain = 0
KWE2 241224Z 16009KT 16/13 A2987 RMK A01 T01610130  RH  082%=      5-min Rain = 0
KWE2 241225Z 16010KT 16/13 A2987 RMK A01 T01620130  RH  081%=      5-min Rain = 0
KWE2 241226Z 16009KT 16/13 A2987 RMK A01 T01630129  RH  080%=      5-min Rain = 0
KWE2 241227Z 16009KT 16/13 A2987 RMK A01 T01630130  RH  080%=      5-min Rain = 0
KWE2 241228Z 16009KT 16/13 A2987 RMK A01 T01640130  RH  080%=      5-min Rain = 0
KWE2 241229Z 16009KT 16/13 A2987 RMK A01 T01640130  RH  080%=      5-min Rain = 0
KWE2 241230Z 16010KT 16/13 A2987 RMK A01 T01640129  RH  080%=      5-min Rain = 0
KWE2 241231Z 16009KT 17/13 A2987 RMK A01 T01650129  RH  079%=      5-min Rain = 0
KWE2 241232Z 16009KT 17/13 A2987 RMK A01 T01650129  RH  079%=      5-min Rain = 0
KWE2 241233Z 17009KT 17/13 A2987 RMK A01 T01660130  RH  079%=      5-min Rain = 0
KWE2 241234Z 17010KT 17/13 A2987 RMK A01 T01660129  RH  079%=      5-min Rain = 0
KWE2 241235Z 17009KT 17/13 A2987 RMK A01 T01670130  RH  079%=      5-min Rain = 0
KWE2 241236Z 17009KT 17/13 A2986 RMK A01 T01670130  RH  079%=      5-min Rain = 0
KWE2 241237Z 17010KT 17/13 A2986 RMK A01 T01680130  RH  078%=      5-min Rain = 0
KWE2 241238Z 17009KT 17/13 A2986 RMK A01 T01690130  RH  078%=      5-min Rain = 0
KWE2 241239Z 17009KT 17/13 A2986 RMK A01 T01690130  RH  078%=      5-min Rain = 0
KWE2 241240Z 17009KT 17/13 A2986 RMK A01 T01690130  RH  078%=      5-min Rain = 0
KWE2 241241Z 17010KT 17/13 A2986 RMK A01 T01690130  RH  078%=      5-min Rain = 0
KWE2 241242Z 17010KT 17/13 A2986 RMK A01 T01700130  RH  077%=      5-min Rain = 0
KWE2 241243Z 17010KT 17/13 A2986 RMK A01 T01700130  RH  077%=      5-min Rain = 0
KWE2 241244Z 17008KT 17/13 A2986 RMK A01 T01710131  RH  077%=      5-min Rain = 0
KWE2 241245Z 17010KT 17/13 A2986 RMK A01 T01710130  RH  077%=      5-min Rain = 0
KWE2 241246Z 17009KT 17/13 A2986 RMK A01 T01720130  RH  076%=      5-min Rain = 0
KWE2 241247Z 17009KT 17/13 A2986 RMK A01 T01720131  RH  077%=      5-min Rain = 0
KWE2 241248Z 17010KT 17/13 A2986 RMK A01 T01730131  RH  076%=      5-min Rain = 0
KWE2 241249Z 17010KT 17/13 A2986 RMK A01 T01730131  RH  076%=      5-min Rain = 0
KWE2 241250Z 17010KT 17/13 A2987 RMK A01 T01740131  RH  076%=      5-min Rain = 0
KWE2 241251Z 17010KT 17/13 A2987 RMK A01 T01740131  RH  076%=      5-min Rain = 0
KWE2 241252Z 17010KT 17/13 A2986 RMK A01 T01740132  RH  076%=      5-min Rain = 0
KWE2 241253Z 17010KT 18/13 A2986 RMK A01 T01750132  RH  076%=      5-min Rain = 0
KWE2 241254Z 17010KT 18/13 A2986 RMK A01 T01750133  RH  076%=      5-min Rain = 0
KWE2 241255Z 17010KT 18/13 A2986 RMK A01 T01760132  RH  076%=      5-min Rain = 0
KWE2 241256Z 17010KT 18/13 A2986 RMK A01 T01760133  RH  075%=      5-min Rain = 0
KWE2 241257Z 17009KT 18/13 A2986 RMK A01 T01760133  RH  076%=      5-min Rain = 0
KWE2 241258Z 17009KT 18/13 A2986 RMK A01 T01770133  RH  076%=      5-min Rain = 0
KWE2 241259Z 17010KT 18/13 A2986 RMK A01 T01770134  RH  076%=      5-min Rain = 0
KWE2 241300Z 17012KT 18/13 A2986 RMK A01 T01780134  RH  075%=      5-min Rain = 0
KWE2 241301Z 17010KT 18/13 A2986 RMK A01 T01780134  RH  075%=      5-min Rain = 0
KWE2 241302Z 16013KT 18/13 A2986 RMK A01 T01790134  RH  075%=      5-min Rain = 0
KWE2 241303Z 17011KT 18/13 A2986 RMK A01 T01790132  RH  074%=      5-min Rain = 0
KWE2 241304Z 17010KT 18/13 A2986 RMK A01 T01790134  RH  075%=      5-min Rain = 0
KWE2 241305Z 17012KT 18/13 A2986 RMK A01 T01800134  RH  075%=      5-min Rain = 0
KWE2 241306Z 17010KT 18/13 A2986 RMK A01 T01800132  RH  074%=      5-min Rain = 0
KWE2 241307Z 17009KT 18/14 A2986 RMK A01 T01800135  RH  075%=      5-min Rain = 0
KWE2 241308Z 17011KT 18/14 A2986 RMK A01 T01800135  RH  075%=      5-min Rain = 0
KWE2 241309Z 17011KT 18/13 A2986 RMK A01 T01810134  RH  074%=      5-min Rain = 0
KWE2 241310Z 17011KT 18/13 A2986 RMK A01 T01810134  RH  074%=      5-min Rain = 0
KWE2 241311Z 17011KT 18/14 A2986 RMK A01 T01820135  RH  074%=      5-min Rain = 0
KWE2 241312Z 16012KT 18/14 A2986 RMK A01 T01820135  RH  074%=      5-min Rain = 0
KWE2 241313Z 16011KT 18/14 A2986 RMK A01 T01830135  RH  074%=      5-min Rain = 0
KWE2 241314Z 17012KT 18/14 A2986 RMK A01 T01830136  RH  074%=      5-min Rain = 0
KWE2 241315Z 17013KT 18/14 A2986 RMK A01 T01830136  RH  074%=      5-min Rain = 0
KWE2 241316Z 17013KT 18/14 A2986 RMK A01 T01840135  RH  073%=      5-min Rain = 0
KWE2 241317Z 17013KT 18/14 A2986 RMK A01 T01840135  RH  073%=      5-min Rain = 0
KWE2 241318Z 16012KT 18/14 A2986 RMK A01 T01840136  RH  073%=      5-min Rain = 0
KWE2 241319Z 17009KT 19/14 A2986 RMK A01 T01850137  RH  074%=      5-min Rain = 0
KWE2 241320Z 17009KT 19/14 A2986 RMK A01 T01860140  RH  074%=      5-min Rain = 0
KWE2 241321Z 16011KT 19/14 A2986 RMK A01 T01870139  RH  074%=      5-min Rain = 0
KWE2 241322Z 17011KT 19/14 A2986 RMK A01 T01870137  RH  073%=      5-min Rain = 0
KWE2 241323Z 17011KT 19/14 A2986 RMK A01 T01870136  RH  072%=      5-min Rain = 0
KWE2 241324Z 17010KT 19/14 A2986 RMK A01 T01870139  RH  073%=      5-min Rain = 0
KWE2 241325Z 17012KT 19/14 A2986 RMK A01 T01880139  RH  073%=      5-min Rain = 0
KWE2 241326Z 17011KT 19/14 A2986 RMK A01 T01890138  RH  072%=      5-min Rain = 0
KWE2 241327Z 17010KT 19/14 A2986 RMK A01 T01880138  RH  073%=      5-min Rain = 0
KWE2 241328Z 17010KT 19/14 A2986 RMK A01 T01890140  RH  073%=      5-min Rain = 0
KWE2 241329Z 17010KT 19/14 A2986 RMK A01 T01900141  RH  073%=      5-min Rain = 0
KWE2 241330Z 17011KT 19/14 A2986 RMK A01 T01910140  RH  072%=      5-min Rain = 0
KWE2 241331Z 17011KT 19/14 A2986 RMK A01 T01910139  RH  072%=      5-min Rain = 0
KWE2 241332Z 17012KT 19/14 A2986 RMK A01 T01910139  RH  072%=      5-min Rain = 0
KWE2 241333Z 17011KT 19/14 A2986 RMK A01 T01910140  RH  072%=      5-min Rain = 0
KWE2 241334Z 17013KT 19/14 A2986 RMK A01 T01920140  RH  072%=      5-min Rain = 0
KWE2 241335Z 17014KT 19/14 A2986 RMK A01 T01920139  RH  071%=      5-min Rain = 0
KWE2 241336Z 17014KT 19/14 A2986 RMK A01 T01920139  RH  071%=      5-min Rain = 0
KWE2 241337Z 16014KT 19/14 A2986 RMK A01 T01920140  RH  072%=      5-min Rain = 0
KWE2 241338Z 17013KT 19/14 A2986 RMK A01 T01920139  RH  071%=      5-min Rain = 0
KWE2 241339Z 17012KT 19/14 A2986 RMK A01 T01930141  RH  072%=      5-min Rain = 0
KWE2 241340Z 17011KT 19/14 A2986 RMK A01 T01940142  RH  072%=      5-min Rain = 0
KWE2 241341Z 17013KT 20/14 A2986 RMK A01 T01950142  RH  072%=      5-min Rain = 0
KWE2 241342Z 17013KT 20/14 A2986 RMK A01 T01950141  RH  071%=      5-min Rain = 0
KWE2 241343Z 16014KT 20/14 A2986 RMK A01 T01960141  RH  071%=      5-min Rain = 0
KWE2 241344Z 16015KT 20/14 A2986 RMK A01 T01960142  RH  071%=      5-min Rain = 0
KWE2 241345Z 16014KT 20/14 A2986 RMK A01 T01950141  RH  071%=      5-min Rain = 0
KWE2 241346Z 16013KT 20/14 A2986 RMK A01 T01960142  RH  071%=      5-min Rain = 0
KWE2 241347Z 16013KT 20/14 A2986 RMK A01 T01970143  RH  071%=      5-min Rain = 0
KWE2 241348Z 17013KT 20/14 A2986 RMK A01 T01980143  RH  070%=      5-min Rain = 0
KWE2 241349Z 17013KT 20/14 A2987 RMK A01 T01980143  RH  070%=      5-min Rain = 0
KWE2 241350Z 16013KT 20/14 A2987 RMK A01 T01980144  RH  071%=      5-min Rain = 0
KWE2 241351Z 16012KT 20/14 A2987 RMK A01 T01990143  RH  070%=      5-min Rain = 0
KWE2 241352Z 15014KT 20/14 A2987 RMK A01 T01990144  RH  070%=      5-min Rain = 0
KWE2 241353Z 16014KT 20/14 A2987 RMK A01 T02000144  RH  070%=      5-min Rain = 0
KWE2 241354Z 16013KT 20/14 A2987 RMK A01 T02010144  RH  070%=      5-min Rain = 0
KWE2 241355Z 16013KT 20/14 A2987 RMK A01 T02010144  RH  070%=      5-min Rain = 0
KWE2 241356Z 17011KT 20/15 A2987 RMK A01 T02020145  RH  070%=      5-min Rain = 0
KWE2 241357Z 16012KT 20/14 A2987 RMK A01 T02020144  RH  070%=      5-min Rain = 0
KWE2 241358Z 16011KT 20/15 A2987 RMK A01 T02020145  RH  070%=      5-min Rain = 0
KWE2 241359Z 17012KT 20/15 A2987 RMK A01 T02020147  RH  070%=      5-min Rain = 0
KWE2 241400Z 17013KT 20/15 A2987 RMK A01 T02030145  RH  069%=      5-min Rain = 0
KWE2 241401Z 16012KT 20/15 A2987 RMK A01 T02030145  RH  069%=      5-min Rain = 0
KWE2 241402Z 16011KT 20/15 A2987 RMK A01 T02030145  RH  069%=      5-min Rain = 0
KWE2 241403Z 16012KT 20/15 A2987 RMK A01 T02030146  RH  070%=      5-min Rain = 0
KWE2 241404Z 17012KT 20/15 A2987 RMK A01 T02040146  RH  069%=      5-min Rain = 0
KWE2 241405Z 17011KT 21/15 A2987 RMK A01 T02050145  RH  069%=      5-min Rain = 0
KWE2 241406Z 17011KT 20/15 A2987 RMK A01 T02040145  RH  069%=      5-min Rain = 0
KWE2 241407Z 16013KT 20/15 A2987 RMK A01 T02040146  RH  069%=      5-min Rain = 0
KWE2 241408Z 17013KT 20/15 A2987 RMK A01 T02040145  RH  069%=      5-min Rain = 0
KWE2 241409Z 17010KT 20/15 A2987 RMK A01 T02040146  RH  069%=      5-min Rain = 0
KWE2 241410Z 16011KT 21/15 A2987 RMK A01 T02050147  RH  069%=      5-min Rain = 0
KWE2 241411Z 17011KT 21/15 A2987 RMK A01 T02050147  RH  069%=      5-min Rain = 0
KWE2 241412Z 17011KT 21/15 A2987 RMK A01 T02060148  RH  069%=      5-min Rain = 0
KWE2 241413Z 17010KT 21/15 A2987 RMK A01 T02060147  RH  069%=      5-min Rain = 0
KWE2 241414Z 17010KT 21/15 A2987 RMK A01 T02070150  RH  070%=      5-min Rain = 0
KWE2 241415Z 18010KT 21/15 A2987 RMK A01 T02090149  RH  068%=      5-min Rain = 0
KWE2 241416Z 17009KT 21/15 A2987 RMK A01 T02100150  RH  068%=      5-min Rain = 0
KWE2 241417Z 17010KT 21/15 A2987 RMK A01 T02110150  RH  068%=      5-min Rain = 0
KWE2 241418Z 17011KT 21/15 A2987 RMK A01 T02120151  RH  068%=      5-min Rain = 0
KWE2 241419Z 17010KT 21/15 A2987 RMK A01 T02120152  RH  068%=      5-min Rain = 0
KWE2 241420Z 17011KT 21/15 A2987 RMK A01 T02140151  RH  067%=      5-min Rain = 0
KWE2 241421Z 18011KT 21/15 A2987 RMK A01 T02140151  RH  067%=      5-min Rain = 0
KWE2 241422Z 18012KT 21/15 A2987 RMK A01 T02140152  RH  067%=      5-min Rain = 0
KWE2 241423Z 17010KT 21/15 A2987 RMK A01 T02140152  RH  068%=      5-min Rain = 0
KWE2 241424Z 18011KT 21/15 A2987 RMK A01 T02140153  RH  068%=      5-min Rain = 0
KWE2 241425Z 17010KT 21/15 A2987 RMK A01 T02140152  RH  068%=      5-min Rain = 0
KWE2 241426Z 17012KT 21/15 A2987 RMK A01 T02140154  RH  069%=      5-min Rain = 0
KWE2 241427Z 17015KT 22/16 A2987 RMK A01 T02180156  RH  068%=      5-min Rain = 0
KWE2 241428Z 17014KT 22/15 A2987 RMK A01 T02190153  RH  066%=      5-min Rain = 0
KWE2 241429Z 17014KT 22/15 A2987 RMK A01 T02180154  RH  067%=      5-min Rain = 0
KWE2 241430Z 18014KT 22/15 A2987 RMK A01 T02170154  RH  067%=      5-min Rain = 0
KWE2 241431Z 19015KT 22/16 A2987 RMK A01 T02170155  RH  068%=      5-min Rain = 0
KWE2 241432Z 18014KT 22/15 A2987 RMK A01 T02180154  RH  067%=      5-min Rain = 0
KWE2 241433Z 17015KT 22/16 A2987 RMK A01 T02190155  RH  067%=      5-min Rain = 0
KWE2 241434Z 16015KT 22/16 A2987 RMK A01 T02190156  RH  067%=      5-min Rain = 0
KWE2 241435Z 17013KT 22/16 A2987 RMK A01 T02200155  RH  067%=      5-min Rain = 0
KWE2 241436Z 17015KT 22/16 A2987 RMK A01 T02220157  RH  067%=      5-min Rain = 0
KWE2 241437Z 18015KT 22/16 A2987 RMK A01 T02230155  RH  066%=      5-min Rain = 0
KWE2 241438Z 18012KT 22/16 A2987 RMK A01 T02220156  RH  066%=      5-min Rain = 0
KWE2 241439Z 18013KT 22/16 A2988 RMK A01 T02210157  RH  067%=      5-min Rain = 0
KWE2 241440Z 18013KT 22/16 A2988 RMK A01 T02200156  RH  067%=      5-min Rain = 0
KWE2 241441Z 18012KT 22/16 A2988 RMK A01 T02200156  RH  067%=      5-min Rain = 0
KWE2 241442Z 17015KT 22/16 A2988 RMK A01 T02210157  RH  067%=      5-min Rain = 0
KWE2 241443Z 17015KT 22/16 A2988 RMK A01 T02220156  RH  066%=      5-min Rain = 0
KWE2 241444Z 17016KT 22/16 A2988 RMK A01 T02220156  RH  066%=      5-min Rain = 0
KWE2 241445Z 18015KT 22/16 A2988 RMK A01 T02210156  RH  066%=      5-min Rain = 0
KWE2 241446Z 17013KT 22/16 A2988 RMK A01 T02210156  RH  067%=      5-min Rain = 0
KWE2 241447Z 17014KT 22/16 A2988 RMK A01 T02230158  RH  067%=      5-min Rain = 0
KWE2 241448Z 17015KT 23/16 A2988 RMK A01 T02250156  RH  065%=      5-min Rain = 0
KWE2 241449Z 17015KT 22/16 A2988 RMK A01 T02240155  RH  065%=      5-min Rain = 0
KWE2 241450Z 18015KT 22/16 A2988 RMK A01 T02230155  RH  066%=      5-min Rain = 0
KWE2 241451Z 18015KT 22/16 A2988 RMK A01 T02220156  RH  066%=      5-min Rain = 0
KWE2 241452Z 18015KT 22/16 A2988 RMK A01 T02230156  RH  066%=      5-min Rain = 0
KWE2 241453Z 17013KT 22/16 A2987 RMK A01 T02240155  RH  065%=      5-min Rain = 0
KWE2 241454Z 18014KT 22/16 A2987 RMK A01 T02220157  RH  066%=      5-min Rain = 0
KWE2 241455Z 17014KT 22/16 A2987 RMK A01 T02240157  RH  066%=      5-min Rain = 0
KWE2 241456Z 17014KT 22/16 A2987 RMK A01 T02240156  RH  065%=      5-min Rain = 0
KWE2 241457Z 18014KT 22/16 A2987 RMK A01 T02240156  RH  065%=      5-min Rain = 0
KWE2 241458Z 18012KT 22/16 A2987 RMK A01 T02230155  RH  065%=      5-min Rain = 0
KWE2 241459Z 18011KT 22/16 A2987 RMK A01 T02230157  RH  066%=      5-min Rain = 0
KWE2 241500Z 17014KT 23/16 A2987 RMK A01 T02250157  RH  065%=      5-min Rain = 0
KWE2 241501Z 18013KT 23/16 A2987 RMK A01 T02260156  RH  065%=      5-min Rain = 0
KWE2 241502Z 18012KT 23/16 A2987 RMK A01 T02260157  RH  065%=      5-min Rain = 0
KWE2 241503Z 17012KT 23/16 A2987 RMK A01 T02280158  RH  065%=      5-min Rain = 0
KWE2 241504Z 17014KT 23/16 A2987 RMK A01 T02280156  RH  064%=      5-min Rain = 0
KWE2 241505Z 17014KT 23/16 A2987 RMK A01 T02290158  RH  064%=      5-min Rain = 0
KWE2 241506Z 18012KT 23/16 A2987 RMK A01 T02300158  RH  064%=      5-min Rain = 0
KWE2 241507Z 18010KT 23/16 A2987 RMK A01 T02320157  RH  063%=      5-min Rain = 0
KWE2 241508Z 19012KT 23/16 A2987 RMK A01 T02300156  RH  063%=      5-min Rain = 0
KWE2 241509Z 19011KT 23/16 A2987 RMK A01 T02270156  RH  064%=      5-min Rain = 0
KWE2 241510Z 17011KT 23/16 A2987 RMK A01 T02270158  RH  065%=      5-min Rain = 0
KWE2 241511Z 17014KT 23/16 A2987 RMK A01 T02310159  RH  064%=      5-min Rain = 0
KWE2 241512Z 17013KT 23/16 A2987 RMK A01 T02330159  RH  063%=      5-min Rain = 0
KWE2 241513Z 18015KT 24/16 A2987 RMK A01 T02370160  RH  062%=      5-min Rain = 0
KWE2 241514Z 19015KT 24/16 A2987 RMK A01 T02350156  RH  061%=      5-min Rain = 0
KWE2 241515Z 18014KT 23/16 A2987 RMK A01 T02330157  RH  062%=      5-min Rain = 0
KWE2 241516Z 18012KT 23/16 A2987 RMK A01 T02310156  RH  062%=      5-min Rain = 0
KWE2 241517Z 18012KT 23/16 A2987 RMK A01 T02300157  RH  063%=      5-min Rain = 0
KWE2 241518Z 18013KT 23/16 A2987 RMK A01 T02300158  RH  064%=      5-min Rain = 0
KWE2 241519Z 18014KT 23/16 A2987 RMK A01 T02330160  RH  064%=      5-min Rain = 0
KWE2 241520Z 17013KT 24/16 A2986 RMK A01 T02360159  RH  062%=      5-min Rain = 0
KWE2 241521Z 18010KT 23/16 A2986 RMK A01 T02340158  RH  062%=      5-min Rain = 0
KWE2 241522Z 18011KT 23/16 A2986 RMK A01 T02340160  RH  063%=      5-min Rain = 0
KWE2 241523Z 17012KT 24/16 A2986 RMK A01 T02350158  RH  062%=      5-min Rain = 0
KWE2 241524Z 17014KT 24/16 A2986 RMK A01 T02360160  RH  062%=      5-min Rain = 0
KWE2 241525Z 18013KT 24/16 A2986 RMK A01 T02380160  RH  061%=      5-min Rain = 0
KWE2 241526Z 19013KT 24/16 A2986 RMK A01 T02400160  RH  061%=      5-min Rain = 0
KWE2 241527Z 19012KT 24/16 A2986 RMK A01 T02380159  RH  061%=      5-min Rain = 0
KWE2 241528Z 18013KT 24/16 A2986 RMK A01 T02360158  RH  062%=      5-min Rain = 0
KWE2 241529Z 18013KT 24/16 A2986 RMK A01 T02360158  RH  061%=      5-min Rain = 0
KWE2 241530Z 20013KT 24/16 A2986 RMK A01 T02360156  RH  061%=      5-min Rain = 0
KWE2 241531Z 19013KT 24/16 A2986 RMK A01 T02370156  RH  060%=      5-min Rain = 0
KWE2 241532Z 18012KT 24/16 A2986 RMK A01 T02370157  RH  061%=      5-min Rain = 0
KWE2 241533Z 18011KT 24/16 A2986 RMK A01 T02380158  RH  061%=      5-min Rain = 0
KWE2 241534Z 18011KT 24/16 A2986 RMK A01 T02380159  RH  061%=      5-min Rain = 0
KWE2 241535Z 19011KT 24/16 A2986 RMK A01 T02390160  RH  061%=      5-min Rain = 0
KWE2 241536Z 17011KT 24/16 A2986 RMK A01 T02400160  RH  061%=      5-min Rain = 0
KWE2 241537Z 18013KT 24/16 A2986 RMK A01 T02420162  RH  061%=      5-min Rain = 0
KWE2 241538Z 18011KT 24/16 A2986 RMK A01 T02440159  RH  059%=      5-min Rain = 0
KWE2 241539Z 18011KT 24/16 A2986 RMK A01 T02390158  RH  060%=      5-min Rain = 0
KWE2 241540Z 17014G20KT 24/16 A2985 RMK A01 T02400159  RH  060%=      5-min Rain = 0
KWE2 241541Z 21014KT 24/16 A2985 RMK A01 T02440160  RH  059%=      5-min Rain = 0
KWE2 241542Z 19014KT 25/16 A2985 RMK A01 T02450158  RH  058%=      5-min Rain = 0
KWE2 241543Z 19009KT 24/16 A2985 RMK A01 T02430158  RH  059%=      5-min Rain = 0
KWE2 241544Z 19010KT 24/16 A2985 RMK A01 T02430160  RH  060%=      5-min Rain = 0
KWE2 241545Z 19010KT 25/16 A2985 RMK A01 T02450159  RH  059%=      5-min Rain = 0
KWE2 241546Z 19013KT 25/16 A2985 RMK A01 T02460159  RH  058%=      5-min Rain = 0
KWE2 241547Z 20011KT 25/16 A2985 RMK A01 T02450156  RH  057%=      5-min Rain = 0
KWE2 241548Z 19009KT 24/16 A2985 RMK A01 T02420156  RH  059%=      5-min Rain = 0
KWE2 241549Z 18012KT 25/16 A2985 RMK A01 T02450161  RH  060%=      5-min Rain = 0
KWE2 241550Z 19013KT 25/16 A2985 RMK A01 T02480162  RH  059%=      5-min Rain = 0
KWE2 241551Z 17012KT 25/16 A2985 RMK A01 T02490162  RH  058%=      5-min Rain = 0
KWE2 241552Z 18014KT 25/16 A2985 RMK A01 T02500160  RH  057%=      5-min Rain = 0
KWE2 241553Z 18014KT 25/16 A2985 RMK A01 T02500159  RH  057%=      5-min Rain = 0
KWE2 241554Z 19011KT 25/16 A2985 RMK A01 T02490156  RH  056%=      5-min Rain = 0
KWE2 241555Z 19013KT 25/16 A2985 RMK A01 T02480157  RH  057%=      5-min Rain = 0
KWE2 241556Z 19012KT 25/16 A2985 RMK A01 T02490158  RH  057%=      5-min Rain = 0
KWE2 241557Z 19010KT 25/16 A2984 RMK A01 T02500159  RH  057%=      5-min Rain = 0
KWE2 241558Z 19009KT 25/16 A2984 RMK A01 T02490161  RH  058%=      5-min Rain = 0
KWE2 241559Z 19011KT 25/16 A2984 RMK A01 T02500162  RH  058%=      5-min Rain = 0
KWE2 241600Z 18011KT 25/16 A2985 RMK A01 T02520163  RH  058%=      5-min Rain = 0
KWE2 241601Z 19013KT 25/16 A2985 RMK A01 T02530163  RH  057%=      5-min Rain = 0
KWE2 241602Z 18012KT 25/16 A2985 RMK A01 T02540162  RH  056%=      5-min Rain = 0
KWE2 241603Z 19012KT 26/16 A2985 RMK A01 T02550162  RH  056%=      5-min Rain = 0
KWE2 241604Z 19009KT 26/16 A2985 RMK A01 T02550161  RH  056%=      5-min Rain = 0
KWE2 241605Z 18011KT 25/16 A2985 RMK A01 T02540163  RH  057%=      5-min Rain = 0
KWE2 241606Z 18009KT 25/16 A2984 RMK A01 T02540162  RH  057%=      5-min Rain = 0
KWE2 241607Z 18012KT 25/16 A2984 RMK A01 T02520162  RH  057%=      5-min Rain = 0
KWE2 241608Z 17015KT 25/16 A2984 RMK A01 T02540163  RH  057%=      5-min Rain = 0
KWE2 241609Z 17014KT 26/16 A2984 RMK A01 T02550161  RH  056%=      5-min Rain = 0
KWE2 241610Z 17012G17KT 25/16 A2984 RMK A01 T02530161  RH  057%=      5-min Rain = 0
KWE2 241611Z 17010KT 25/16 A2984 RMK A01 T02520162  RH  058%=      5-min Rain = 0
KWE2 241612Z 17012KT 26/17 A2984 RMK A01 T02550165  RH  057%=      5-min Rain = 0
KWE2 241613Z 19010KT 26/16 A2984 RMK A01 T02550163  RH  057%=      5-min Rain = 0
KWE2 241614Z 17011KT 25/16 A2984 RMK A01 T02540163  RH  057%=      5-min Rain = 0
KWE2 241615Z 18012KT 26/16 A2984 RMK A01 T02570164  RH  057%=      5-min Rain = 0
KWE2 241616Z 18014KT 26/16 A2984 RMK A01 T02610163  RH  055%=      5-min Rain = 0
KWE2 241617Z 18011KT 26/16 A2984 RMK A01 T02600162  RH  055%=      5-min Rain = 0
KWE2 241618Z 20011KT 26/16 A2984 RMK A01 T02590162  RH  055%=      5-min Rain = 0
KWE2 241619Z 18010KT 26/16 A2984 RMK A01 T02590162  RH  055%=      5-min Rain = 0
KWE2 241620Z 18012KT 26/16 A2984 RMK A01 T02590162  RH  055%=      5-min Rain = 0
KWE2 241621Z 18011KT 26/16 A2984 RMK A01 T02580162  RH  055%=      5-min Rain = 0
KWE2 241622Z 18014KT 26/16 A2984 RMK A01 T02600164  RH  056%=      5-min Rain = 0
KWE2 241623Z 18013KT 26/16 A2984 RMK A01 T02640163  RH  054%=      5-min Rain = 0
KWE2 241624Z 17013KT 26/16 A2984 RMK A01 T02640162  RH  053%=      5-min Rain = 0
KWE2 241625Z 16009KT 26/16 A2984 RMK A01 T02640161  RH  053%=      5-min Rain = 0
KWE2 241626Z 17008G14KT 26/16 A2984 RMK A01 T02610162  RH  054%=      5-min Rain = 0
KWE2 241627Z 21011KT 26/16 A2984 RMK A01 T02630162  RH  054%=      5-min Rain = 0
KWE2 241628Z 20013KT 26/16 A2984 RMK A01 T02630161  RH  054%=      5-min Rain = 0
KWE2 241629Z 19010KT 26/16 A2985 RMK A01 T02630161  RH  053%=      5-min Rain = 0
KWE2 241630Z 19008KT 26/16 A2984 RMK A01 T02620161  RH  054%=      5-min Rain = 0
KWE2 241631Z 19010G15KT 27/16 A2984 RMK A01 T02650163  RH  053%=      5-min Rain = 0
KWE2 241632Z 20012KT 27/16 A2984 RMK A01 T02690162  RH  052%=      5-min Rain = 0
KWE2 241633Z 21009KT 27/16 A2984 RMK A01 T02690160  RH  051%=      5-min Rain = 0
KWE2 241634Z 20008KT 27/16 A2984 RMK A01 T02660160  RH  052%=      5-min Rain = 0
KWE2 241635Z 20007KT 26/16 A2984 RMK A01 T02630159  RH  053%=      5-min Rain = 0
KWE2 241636Z 18009KT 26/16 A2984 RMK A01 T02620160  RH  053%=      5-min Rain = 0
KWE2 241637Z 20008KT 26/16 A2985 RMK A01 T02640161  RH  053%=      5-min Rain = 0
KWE2 241638Z 19008KT 26/16 A2985 RMK A01 T02630163  RH  054%=      5-min Rain = 0
KWE2 241639Z 18008KT 27/17 A2985 RMK A01 T02670166  RH  054%=      5-min Rain = 0
KWE2 241640Z 17009KT 27/17 A2985 RMK A01 T02710166  RH  053%=      5-min Rain = 0
KWE2 241641Z 18008KT 27/17 A2985 RMK A01 T02700166  RH  053%=      5-min Rain = 0
KWE2 241642Z 21012KT 27/16 A2985 RMK A01 T02700161  RH  051%=      5-min Rain = 0
KWE2 241643Z 20010KT 27/16 A2985 RMK A01 T02710157  RH  050%=      5-min Rain = 0
KWE2 241644Z 21008KT 27/16 A2985 RMK A01 T02690157  RH  050%=      5-min Rain = 0
KWE2 241645Z 19007KT 27/16 A2985 RMK A01 T02680157  RH  050%=      5-min Rain = 0
KWE2 241646Z 18007KT 27/16 A2985 RMK A01 T02690158  RH  051%=      5-min Rain = 0
KWE2 241647Z 18008G14KT 27/16 A2985 RMK A01 T02700160  RH  051%=      5-min Rain = 0
KWE2 241648Z 20010KT 27/16 A2985 RMK A01 T02720159  RH  050%=      5-min Rain = 0
KWE2 241649Z 20008KT 27/16 A2985 RMK A01 T02720159  RH  050%=      5-min Rain = 0
KWE2 241650Z 19009KT 27/16 A2985 RMK A01 T02710159  RH  050%=      5-min Rain = 0
KWE2 241651Z 22008KT 27/16 A2985 RMK A01 T02700160  RH  051%=      5-min Rain = 0
KWE2 241652Z 22008KT 27/16 A2984 RMK A01 T02700160  RH  051%=      5-min Rain = 0
KWE2 241653Z 20005KT 27/16 A2984 RMK A01 T02710159  RH  050%=      5-min Rain = 0
KWE2 241654Z 17008KT 27/16 A2985 RMK A01 T02700159  RH  051%=      5-min Rain = 0
KWE2 241655Z 18007KT 27/16 A2984 RMK A01 T02700158  RH  050%=      5-min Rain = 0
KWE2 241656Z 18011KT 27/16 A2984 RMK A01 T02710160  RH  051%=      5-min Rain = 0
KWE2 241657Z 18011KT 28/16 A2984 RMK A01 T02760160  RH  049%=      5-min Rain = 0
KWE2 241658Z 19012KT 28/16 A2984 RMK A01 T02760159  RH  049%=      5-min Rain = 0
KWE2 241659Z 17008KT 27/16 A2984 RMK A01 T02730159  RH  050%=      5-min Rain = 0
KWE2 241700Z 19006KT 27/16 A2984 RMK A01 T02710157  RH  050%=      5-min Rain = 0
KWE2 241701Z 21006KT 27/16 A2984 RMK A01 T02710158  RH  050%=      5-min Rain = 0
KWE2 241702Z 19006KT 27/16 A2984 RMK A01 T02720157  RH  049%=      5-min Rain = 0
KWE2 241703Z 18005KT 27/16 A2984 RMK A01 T02710158  RH  050%=      5-min Rain = 0
KWE2 241704Z 16012KT 27/16 A2984 RMK A01 T02730161  RH  050%=      5-min Rain = 0
KWE2 241705Z 17012KT 28/16 A2984 RMK A01 T02750159  RH  049%=      5-min Rain = 0
KWE2 241706Z 16011KT 28/16 A2984 RMK A01 T02770158  RH  048%=      5-min Rain = 0
KWE2 241707Z 17010KT 28/16 A2984 RMK A01 T02780161  RH  049%=      5-min Rain = 0
KWE2 241708Z 18009KT 28/16 A2984 RMK A01 T02800160  RH  048%=      5-min Rain = 0
KWE2 241709Z 18007KT 28/16 A2984 RMK A01 T02790157  RH  048%=      5-min Rain = 0
KWE2 241710Z 17009KT 28/16 A2984 RMK A01 T02760155  RH  048%=      5-min Rain = 0
KWE2 241711Z 18006KT 27/16 A2984 RMK A01 T02740155  RH  048%=      5-min Rain = 0
KWE2 241712Z 19005KT 27/15 A2984 RMK A01 T02730153  RH  048%=      5-min Rain = 0
KWE2 241713Z 19005KT 27/15 A2984 RMK A01 T02710153  RH  048%=      5-min Rain = 0
KWE2 241714Z 16011KT 27/16 A2984 RMK A01 T02720157  RH  049%=      5-min Rain = 0
KWE2 241715Z 15009KT 28/16 A2984 RMK A01 T02750159  RH  049%=      5-min Rain = 0
KWE2 241716Z 17008KT 28/16 A2984 RMK A01 T02780158  RH  048%=      5-min Rain = 0
KWE2 241717Z 15008KT 28/16 A2984 RMK A01 T02770159  RH  049%=      5-min Rain = 0
KWE2 241718Z 16011KT 28/16 A2984 RMK A01 T02770158  RH  048%=      5-min Rain = 0
KWE2 241719Z 15009KT 28/16 A2984 RMK A01 T02770158  RH  048%=      5-min Rain = 0
KWE2 241720Z 15005KT 28/16 A2984 RMK A01 T02780158  RH  048%=      5-min Rain = 0
KWE2 241721Z 16008G13KT 28/16 A2984 RMK A01 T02770158  RH  048%=      5-min Rain = 0
KWE2 241722Z 16013KT 28/16 A2984 RMK A01 T02800159  RH  048%=      5-min Rain = 0
KWE2 241723Z 15010KT 28/16 A2984 RMK A01 T02820157  RH  047%=      5-min Rain = 0
KWE2 241724Z 15007KT 28/16 A2984 RMK A01 T02820157  RH  047%=      5-min Rain = 0
KWE2 241725Z 17010KT 28/16 A2984 RMK A01 T02820158  RH  047%=      5-min Rain = 0
KWE2 241726Z 18010KT 29/16 A2984 RMK A01 T02850158  RH  046%=      5-min Rain = 0
KWE2 241727Z 18009KT 29/16 A2984 RMK A01 T02860156  RH  045%=      5-min Rain = 0
KWE2 241728Z 19008KT 28/16 A2984 RMK A01 T02820155  RH  046%=      5-min Rain = 0
KWE2 241729Z 21005KT 28/16 A2984 RMK A01 T02800155  RH  047%=      5-min Rain = 0
KWE2 241730Z 21003KT 28/16 A2984 RMK A01 T02790155  RH  047%=      5-min Rain = 0
KWE2 241731Z 17006KT 28/16 A2984 RMK A01 T02800155  RH  047%=      5-min Rain = 0
KWE2 241732Z 17011KT 28/16 A2984 RMK A01 T02820155  RH  046%=      5-min Rain = 0
KWE2 241733Z 17012KT 28/15 A2984 RMK A01 T02830154  RH  045%=      5-min Rain = 0
KWE2 241734Z 17012KT 28/15 A2984 RMK A01 T02830154  RH  045%=      5-min Rain = 0
KWE2 241735Z 16009KT 28/15 A2984 RMK A01 T02840153  RH  045%=      5-min Rain = 0
KWE2 241736Z 15005KT 28/15 A2984 RMK A01 T02840152  RH  045%=      5-min Rain = 0
KWE2 241737Z 14007KT 28/15 A2984 RMK A01 T02830153  RH  045%=      5-min Rain = 0
KWE2 241738Z 16009KT 29/15 A2984 RMK A01 T02850153  RH  045%=      5-min Rain = 0
KWE2 241739Z 17009KT 29/15 A2984 RMK A01 T02850153  RH  045%=      5-min Rain = 0
KWE2 241740Z 15005KT 28/15 A2983 RMK A01 T02820153  RH  045%=      5-min Rain = 0
KWE2 241741Z 17005KT 28/16 A2983 RMK A01 T02820156  RH  046%=      5-min Rain = 0
KWE2 241742Z 13009KT 29/16 A2983 RMK A01 T02850155  RH  045%=      5-min Rain = 0
KWE2 241743Z 13009KT 29/16 A2983 RMK A01 T02910155  RH  044%=      5-min Rain = 0
KWE2 241744Z 15008KT 29/15 A2984 RMK A01 T02910153  RH  043%=      5-min Rain = 0
KWE2 241745Z 19007KT 29/15 A2984 RMK A01 T02890154  RH  044%=      5-min Rain = 0
KWE2 241746Z 20009KT 29/15 A2983 RMK A01 T02910150  RH  042%=      5-min Rain = 0
KWE2 241747Z 17006KT 29/15 A2983 RMK A01 T02920154  RH  043%=      5-min Rain = 0
KWE2 241748Z 17007KT 29/15 A2983 RMK A01 T02930154  RH  043%=      5-min Rain = 0
KWE2 241749Z 15013KT 30/16 A2983 RMK A01 T02950156  RH  043%=      5-min Rain = 0
KWE2 241750Z 15013KT 29/15 A2983 RMK A01 T02940153  RH  042%=      5-min Rain = 0
KWE2 241751Z 15011KT 29/15 A2983 RMK A01 T02920152  RH  043%=      5-min Rain = 0
KWE2 241752Z 16012KT 29/15 A2983 RMK A01 T02910151  RH  043%=      5-min Rain = 0
KWE2 241753Z 17011KT 29/15 A2983 RMK A01 T02910151  RH  043%=      5-min Rain = 0
KWE2 241754Z 17011KT 29/15 A2983 RMK A01 T02900149  RH  042%=      5-min Rain = 0
KWE2 241755Z 16012G17KT 29/15 A2983 RMK A01 T02910149  RH  042%=      5-min Rain = 0
KWE2 241756Z 17013KT 29/15 A2983 RMK A01 T02930149  RH  041%=      5-min Rain = 0
KWE2 241757Z 18011KT 29/15 A2983 RMK A01 T02930149  RH  042%=      5-min Rain = 0
KWE2 241758Z 18008KT 29/15 A2983 RMK A01 T02940150  RH  042%=      5-min Rain = 0
KWE2 241759Z 18009KT 30/15 A2983 RMK A01 T02960152  RH  042%=      5-min Rain = 0
KWE2 241800Z 20007KT 30/15 A2983 RMK A01 T02960151  RH  041%=      5-min Rain = 0
KWE2 241801Z 19005KT 29/15 A2983 RMK A01 T02930150  RH  042%=      5-min Rain = 0
KWE2 241802Z 15007KT 29/15 A2983 RMK A01 T02920150  RH  042%=      5-min Rain = 0
KWE2 241803Z 17012KT 29/15 A2983 RMK A01 T02930154  RH  043%=      5-min Rain = 0
KWE2 241804Z 18009KT 30/15 A2983 RMK A01 T02950150  RH  041%=      5-min Rain = 0
KWE2 241805Z 19007KT 29/15 A2983 RMK A01 T02910149  RH  042%=      5-min Rain = 0
KWE2 241806Z 22007KT 29/15 A2983 RMK A01 T02890150  RH  043%=      5-min Rain = 0
KWE2 241807Z 23006KT 29/15 A2982 RMK A01 T02890147  RH  042%=      5-min Rain = 0
KWE2 241808Z 15010KT 29/15 A2983 RMK A01 T02920152  RH  043%=      5-min Rain = 0
KWE2 241809Z 17010KT 30/15 A2983 RMK A01 T02950150  RH  041%=      5-min Rain = 0
KWE2 241810Z 19011KT 30/15 A2983 RMK A01 T02960149  RH  041%=      5-min Rain = 0
KWE2 241811Z 20009KT 30/15 A2983 RMK A01 T02960145  RH  040%=      5-min Rain = 0
KWE2 241812Z 20009KT 29/14 A2983 RMK A01 T02940144  RH  040%=      5-min Rain = 0
KWE2 241813Z 21007KT 29/15 A2983 RMK A01 T02940145  RH  040%=      5-min Rain = 0
KWE2 241814Z 22007KT 30/15 A2982 RMK A01 T02960145  RH  040%=      5-min Rain = 0
KWE2 241815Z 21005KT 30/15 A2982 RMK A01 T02970146  RH  040%=      5-min Rain = 0
KWE2 241816Z 15005KT 30/15 A2982 RMK A01 T02980148  RH  040%=      5-min Rain = 0
KWE2 241817Z 14009KT 30/15 A2982 RMK A01 T02990150  RH  040%=      5-min Rain = 0
KWE2 241818Z 15010KT 30/15 A2982 RMK A01 T03020150  RH  040%=      5-min Rain = 0
KWE2 241819Z 17006KT 30/15 A2982 RMK A01 T02990147  RH  039%=      5-min Rain = 0
KWE2 241820Z 14009KT 30/15 A2982 RMK A01 T02950147  RH  040%=      5-min Rain = 0
KWE2 241821Z 14012KT 30/15 A2982 RMK A01 T02960147  RH  040%=      5-min Rain = 0
KWE2 241822Z 14008KT 30/15 A2982 RMK A01 T02980149  RH  040%=      5-min Rain = 0
KWE2 241823Z 14011KT 30/15 A2982 RMK A01 T02980147  RH  040%=      5-min Rain = 0
KWE2 241824Z 15014KT 30/15 A2982 RMK A01 T02990146  RH  039%=      5-min Rain = 0
KWE2 241825Z 15010KT 30/15 A2982 RMK A01 T02990145  RH  039%=      5-min Rain = 0
KWE2 241826Z 16004KT 30/14 A2982 RMK A01 T02970143  RH  039%=      5-min Rain = 0
KWE2 241827Z 17006G11KT 30/15 A2982 RMK A01 T02950146  RH  040%=      5-min Rain = 0
KWE2 241828Z 18010G15KT 30/15 A2982 RMK A01 T02980149  RH  040%=      5-min Rain = 0
KWE2 241829Z 18011KT 30/15 A2982 RMK A01 T03030146  RH  038%=      5-min Rain = 0
KWE2 241830Z 19009KT 30/15 A2982 RMK A01 T03020145  RH  038%=      5-min Rain = 0
KWE2 241831Z 18011KT 30/15 A2982 RMK A01 T03030146  RH  038%=      5-min Rain = 0
KWE2 241832Z 18011KT 31/15 A2982 RMK A01 T03070147  RH  038%=      5-min Rain = 0
KWE2 241833Z 19014KT 31/15 A2982 RMK A01 T03080148  RH  038%=      5-min Rain = 0
KWE2 241834Z 16010KT 31/15 A2982 RMK A01 T03070146  RH  038%=      5-min Rain = 0
KWE2 241835Z 17009KT 31/15 A2982 RMK A01 T03050146  RH  038%=      5-min Rain = 0
KWE2 241836Z 17008KT 30/15 A2982 RMK A01 T03040146  RH  038%=      5-min Rain = 0
KWE2 241837Z 16006KT 30/15 A2982 RMK A01 T03040145  RH  038%=      5-min Rain = 0
KWE2 241838Z 19008KT 30/14 A2982 RMK A01 T03020144  RH  038%=      5-min Rain = 0
KWE2 241839Z 23005KT 30/14 A2982 RMK A01 T03000143  RH  038%=      5-min Rain = 0
KWE2 241840Z 24003KT 30/14 A2981 RMK A01 T02990143  RH  039%=      5-min Rain = 0
KWE2 241841Z 17003KT 30/14 A2981 RMK A01 T02990144  RH  039%=      5-min Rain = 0
KWE2 241842Z 13008KT 30/15 A2981 RMK A01 T03000146  RH  039%=      5-min Rain = 0
KWE2 241843Z 16007KT 30/15 A2981 RMK A01 T03040145  RH  038%=      5-min Rain = 0
KWE2 241844Z 18008KT 31/15 A2981 RMK A01 T03060146  RH  038%=      5-min Rain = 0
KWE2 241845Z 14009KT 31/15 A2981 RMK A01 T03080147  RH  038%=      5-min Rain = 0
KWE2 241846Z 15008G13KT 31/15 A2981 RMK A01 T03080145  RH  037%=      5-min Rain = 0
KWE2 241847Z 16010KT 31/14 A2981 RMK A01 T03070144  RH  037%=      5-min Rain = 0
KWE2 241848Z 16013KT 31/14 A2981 RMK A01 T03070144  RH  037%=      5-min Rain = 0
KWE2 241849Z 14010KT 31/14 A2981 RMK A01 T03060142  RH  037%=      5-min Rain = 0
KWE2 241850Z 12005KT 30/14 A2981 RMK A01 T03020140  RH  037%=      5-min Rain = 0
KWE2 241851Z 10004KT 30/14 A2981 RMK A01 T03000141  RH  038%=      5-min Rain = 0
KWE2 241852Z 07003KT 30/14 A2981 RMK A01 T02990141  RH  038%=      5-min Rain = 0
KWE2 241853Z 12005KT 30/14 A2981 RMK A01 T02990143  RH  039%=      5-min Rain = 0
KWE2 241854Z 15009G14KT 31/15 A2981 RMK A01 T03050146  RH  038%=      5-min Rain = 0
KWE2 241855Z 16009KT 31/14 A2981 RMK A01 T03090144  RH  037%=      5-min Rain = 0
KWE2 241856Z 13007KT 31/14 A2981 RMK A01 T03100143  RH  036%=      5-min Rain = 0
KWE2 241857Z 14007KT 31/14 A2981 RMK A01 T03110141  RH  036%=      5-min Rain = 0
KWE2 241858Z 16010KT 31/14 A2981 RMK A01 T03090141  RH  036%=      5-min Rain = 0
KWE2 241859Z 15008KT 31/14 A2981 RMK A01 T03080141  RH  036%=      5-min Rain = 0
KWE2 241900Z 13006KT 31/14 A2981 RMK A01 T03080139  RH  036%=      5-min Rain = 0
KWE2 241901Z 17006KT 31/14 A2981 RMK A01 T03070139  RH  036%=      5-min Rain = 0
KWE2 241902Z 15004KT 31/14 A298 RMK A01 T03070137  RH  036%=      5-min Rain = 0
KWE2 241903Z 15009KT 31/14 A298 RMK A01 T03070140  RH  036%=      5-min Rain = 0
KWE2 241904Z 14010KT 31/14 A298 RMK A01 T03100142  RH  036%=      5-min Rain = 0
KWE2 241905Z 12008KT 31/14 A298 RMK A01 T03100142  RH  036%=      5-min Rain = 0
KWE2 241906Z 14007KT 31/14 A298 RMK A01 T03090140  RH  036%=      5-min Rain = 0
KWE2 241907Z 15006KT 31/14 A298 RMK A01 T03080141  RH  036%=      5-min Rain = 0
KWE2 241908Z 15005KT 31/14 A298 RMK A01 T03140144  RH  036%=      5-min Rain = 0
KWE2 241909Z 15008KT 32/14 A298 RMK A01 T03180143  RH  035%=      5-min Rain = 0
KWE2 241910Z 18009KT 32/14 A298 RMK A01 T03180141  RH  034%=      5-min Rain = 0
KWE2 241911Z 17009KT 32/14 A298 RMK A01 T03200139  RH  033%=      5-min Rain = 0
KWE2 241912Z 15010KT 32/14 A298 RMK A01 T03220141  RH  033%=      5-min Rain = 0
KWE2 241913Z 15006KT 32/14 A298 RMK A01 T03220139  RH  033%=      5-min Rain = 0
KWE2 241914Z 17004KT 32/14 A298 RMK A01 T03180140  RH  034%=      5-min Rain = 0
KWE2 241915Z 16012KT 32/14 A298 RMK A01 T03170136  RH  033%=      5-min Rain = 0
KWE2 241916Z 16014KT 32/13 A298 RMK A01 T03170133  RH  032%=      5-min Rain = 0
KWE2 241917Z 15009KT 32/13 A298 RMK A01 T03170131  RH  032%=      5-min Rain = 0
KWE2 241918Z 16011KT 32/13 A298 RMK A01 T03150132  RH  033%=      5-min Rain = 0
KWE2 241919Z 17011KT 32/14 A2979 RMK A01 T03160135  RH  033%=      5-min Rain = 0
KWE2 241920Z 16011KT 32/14 A2979 RMK A01 T03180135  RH  033%=      5-min Rain = 0
KWE2 241921Z 17011KT 32/14 A2979 RMK A01 T03170137  RH  034%=      5-min Rain = 0
KWE2 241922Z 16009KT 32/14 A2979 RMK A01 T03160138  RH  034%=      5-min Rain = 0
KWE2 241923Z 18007KT 32/14 A2979 RMK A01 T03160140  RH  034%=      5-min Rain = 0
KWE2 241924Z 17007KT 32/14 A2979 RMK A01 T03150138  RH  034%=      5-min Rain = 0
KWE2 241925Z 17007KT 31/14 A2979 RMK A01 T03140138  RH  034%=      5-min Rain = 0
KWE2 241926Z 19005KT 31/14 A2979 RMK A01 T03130135  RH  034%=      5-min Rain = 0
KWE2 241927Z 19005KT 31/14 A2979 RMK A01 T03120135  RH  034%=      5-min Rain = 0
KWE2 241928Z 18004KT 31/14 A2979 RMK A01 T03110136  RH  035%=      5-min Rain = 0
KWE2 241929Z 17005KT 31/13 A2979 RMK A01 T03110134  RH  034%=      5-min Rain = 0
KWE2 241930Z 18003KT 31/14 A2979 RMK A01 T03110135  RH  034%=      5-min Rain = 0
KWE2 241931Z 15005KT 31/13 A2979 RMK A01 T03120134  RH  034%=      5-min Rain = 0
KWE2 241932Z 17007KT 31/14 A2979 RMK A01 T03140136  RH  034%=      5-min Rain = 0
KWE2 241933Z 22009KT 32/14 A2978 RMK A01 T03160139  RH  034%=      5-min Rain = 0
KWE2 241934Z 16007G12KT 32/14 A2979 RMK A01 T03180143  RH  035%=      5-min Rain = 0
KWE2 241935Z 14009KT 32/14 A2978 RMK A01 T03200139  RH  033%=      5-min Rain = 0
KWE2 241936Z 13010KT 32/14 A2978 RMK A01 T03240141  RH  033%=      5-min Rain = 0
KWE2 241937Z 15010G15KT 33/14 A2978 RMK A01 T03250140  RH  033%=      5-min Rain = 0
KWE2 241938Z 14007KT 32/14 A2978 RMK A01 T03200135  RH  032%=      5-min Rain = 0
KWE2 241939Z 15004KT 31/14 A2978 RMK A01 T03140135  RH  033%=      5-min Rain = 0
KWE2 241940Z 12006KT 31/14 A2978 RMK A01 T03140137  RH  034%=      5-min Rain = 0
KWE2 241941Z 11010KT 32/14 A2978 RMK A01 T03160136  RH  033%=      5-min Rain = 0
KWE2 241942Z 10010KT 32/14 A2978 RMK A01 T03200135  RH  033%=      5-min Rain = 0
KWE2 241943Z 09008KT 32/13 A2978 RMK A01 T03220134  RH  032%=      5-min Rain = 0
KWE2 241944Z 13007KT 32/13 A2977 RMK A01 T03210133  RH  032%=      5-min Rain = 0
KWE2 241945Z 13011KT 32/13 A2978 RMK A01 T03220134  RH  032%=      5-min Rain = 0
KWE2 241946Z 16011KT 33/12 A2978 RMK A01 T03260122  RH  029%=      5-min Rain = 0
KWE2 241947Z 17011KT 33/12 A2977 RMK A01 T03280117  RH  028%=      5-min Rain = 0
KWE2 241948Z 17010KT 33/11 A2977 RMK A01 T03290113  RH  027%=      5-min Rain = 0
KWE2 241949Z 17010KT 33/12 A2978 RMK A01 T03330119  RH  027%=      5-min Rain = 0
KWE2 241950Z 15011KT 33/12 A2978 RMK A01 T03340115  RH  026%=      5-min Rain = 0
KWE2 241951Z 15012KT 33/12 A2977 RMK A01 T03330115  RH  027%=      5-min Rain = 0
KWE2 241952Z 16010KT 33/11 A2977 RMK A01 T03300113  RH  027%=      5-min Rain = 0
KWE2 241953Z 16009KT 33/12 A2977 RMK A01 T03270115  RH  027%=      5-min Rain = 0
KWE2 241954Z 18005KT 33/12 A2977 RMK A01 T03250118  RH  028%=      5-min Rain = 0
KWE2 241955Z 20003KT 32/12 A2977 RMK A01 T03240117  RH  028%=      5-min Rain = 0
KWE2 241956Z 15005KT 32/12 A2977 RMK A01 T03220117  RH  029%=      5-min Rain = 0
KWE2 241957Z 16004KT 32/11 A2977 RMK A01 T03210114  RH  028%=      5-min Rain = 0
KWE2 241958Z 16008G14KT 32/12 A2977 RMK A01 T03200121  RH  030%=      5-min Rain = 0
KWE2 241959Z 14009KT 32/12 A2977 RMK A01 T03230118  RH  029%=      5-min Rain = 0
KWE2 242000Z 12007KT 32/12 A2977 RMK A01 T03230118  RH  029%=      5-min Rain = 0
KWE2 242001Z 13006KT 33/12 A2977 RMK A01 T03250117  RH  028%=      5-min Rain = 0
KWE2 242002Z 16010G21KT 33/12 A2977 RMK A01 T03260121  RH  029%=      5-min Rain = 0
KWE2 242003Z 14015G20KT 33/12 A2977 RMK A01 T03280120  RH  028%=      5-min Rain = 0
KWE2 242004Z 14010KT 33/12 A2977 RMK A01 T03310122  RH  028%=      5-min Rain = 0
KWE2 242005Z 17013KT 33/13 A2977 RMK A01 T03310126  RH  029%=      5-min Rain = 0
KWE2 242006Z 17012KT 33/13 A2977 RMK A01 T03310125  RH  029%=      5-min Rain = 0
KWE2 242007Z 19010KT 33/12 A2977 RMK A01 T03260123  RH  029%=      5-min Rain = 0
KWE2 242008Z 19008KT 32/13 A2977 RMK A01 T03240125  RH  030%=      5-min Rain = 0
KWE2 242009Z 17007KT 32/13 A2977 RMK A01 T03230127  RH  030%=      5-min Rain = 0
KWE2 242010Z 15006KT 32/13 A2977 RMK A01 T03220125  RH  030%=      5-min Rain = 0
KWE2 242011Z 14010KT 32/13 A2977 RMK A01 T03240125  RH  030%=      5-min Rain = 0
KWE2 242012Z 13007KT 33/12 A2977 RMK A01 T03280122  RH  029%=      5-min Rain = 0
KWE2 242013Z 11007KT 33/12 A2976 RMK A01 T03280120  RH  028%=      5-min Rain = 0
KWE2 242014Z 13007KT 33/12 A2976 RMK A01 T03250119  RH  028%=      5-min Rain = 0
KWE2 242015Z 16009KT 32/12 A2976 RMK A01 T03230120  RH  029%=      5-min Rain = 0
KWE2 242016Z 14008KT 33/12 A2976 RMK A01 T03250122  RH  029%=      5-min Rain = 0
KWE2 242017Z 17007KT 33/12 A2976 RMK A01 T03280122  RH  029%=      5-min Rain = 0
KWE2 242018Z 16004KT 33/12 A2976 RMK A01 T03290124  RH  029%=      5-min Rain = 0
KWE2 242019Z 19000KT 33/12 A2976 RMK A01 T03290121  RH  028%=      5-min Rain = 0
KWE2 242020Z 17004G10KT 33/12 A2976 RMK A01 T03280124  RH  029%=      5-min Rain = 0
KWE2 242021Z 17005G10KT 33/11 A2976 RMK A01 T03280109  RH  026%=      5-min Rain = 0
KWE2 242022Z 06001KT 33/11 A2976 RMK A01 T03250107  RH  026%=      5-min Rain = 0
KWE2 242023Z 19005KT 33/11 A2976 RMK A01 T03260108  RH  026%=      5-min Rain = 0
KWE2 242024Z 21004KT 33/09 A2976 RMK A01 T03270093  RH  024%=      5-min Rain = 0
KWE2 242025Z 16002KT 33/10 A2976 RMK A01 T03250095  RH  024%=      5-min Rain = 0
KWE2 242026Z 12004KT 33/10 A2976 RMK A01 T03250100  RH  025%=      5-min Rain = 0
KWE2 242027Z 11004KT 33/09 A2976 RMK A01 T03260091  RH  024%=      5-min Rain = 0
KWE2 242028Z 09002KT 33/09 A2976 RMK A01 T03250091  RH  024%=      5-min Rain = 0
KWE2 242029Z 15004KT 33/09 A2976 RMK A01 T03250094  RH  024%=      5-min Rain = 0
KWE2 242030Z 17014KT 33/09 A2976 RMK A01 T03280092  RH  023%=      5-min Rain = 0
KWE2 242031Z 18009KT 33/09 A2976 RMK A01 T03310091  RH  023%=      5-min Rain = 0
KWE2 242032Z 16008KT 33/09 A2976 RMK A01 T03290091  RH  023%=      5-min Rain = 0
KWE2 242033Z 17006KT 33/09 A2976 RMK A01 T03280090  RH  023%=      5-min Rain = 0
KWE2 242034Z 19004KT 33/09 A2975 RMK A01 T03270089  RH  023%=      5-min Rain = 0
KWE2 242035Z 14006KT 33/09 A2975 RMK A01 T03250091  RH  024%=      5-min Rain = 0
KWE2 242036Z 14008KT 33/09 A2975 RMK A01 T03260089  RH  023%=      5-min Rain = 0
KWE2 242037Z 13009KT 33/09 A2975 RMK A01 T03310093  RH  023%=      5-min Rain = 0
KWE2 242038Z 11006KT 34/09 A2975 RMK A01 T03350092  RH  022%=      5-min Rain = 0
KWE2 242039Z 14009KT 34/09 A2975 RMK A01 T03370089  RH  022%=      5-min Rain = 0
KWE2 242040Z 14010KT 34/08 A2975 RMK A01 T03380082  RH  021%=      5-min Rain = 0
KWE2 242041Z 14009KT 34/08 A2975 RMK A01 T03370082  RH  021%=      5-min Rain = 0
KWE2 242042Z 14009G14KT 34/08 A2975 RMK A01 T03350079  RH  021%=      5-min Rain = 0
KWE2 242043Z 14010KT 33/08 A2975 RMK A01 T03340079  RH  021%=      5-min Rain = 0
KWE2 242044Z 19014KT 34/09 A2975 RMK A01 T03360085  RH  021%=      5-min Rain = 0
KWE2 242045Z 19012KT 34/09 A2975 RMK A01 T03390087  RH  021%=      5-min Rain = 0
KWE2 242046Z 19004KT 33/08 A2975 RMK A01 T03320083  RH  021%=      5-min Rain = 0
KWE2 242047Z 24004KT 33/08 A2974 RMK A01 T03260083  RH  022%=      5-min Rain = 0
KWE2 242048Z 15008KT 33/08 A2974 RMK A01 T03250077  RH  021%=      5-min Rain = 0
KWE2 242049Z 15007KT 33/07 A2974 RMK A01 T03290068  RH  020%=      5-min Rain = 0
KWE2 242050Z 16009KT 33/08 A2974 RMK A01 T03320075  RH  020%=      5-min Rain = 0
KWE2 242051Z 17011KT 33/08 A2974 RMK A01 T03320081  RH  021%=      5-min Rain = 0
KWE2 242052Z 15006KT 33/08 A2974 RMK A01 T03320082  RH  021%=      5-min Rain = 0
KWE2 242053Z 17007G12KT 33/09 A2974 RMK A01 T03320087  RH  022%=      5-min Rain = 0
KWE2 242054Z 18014KT 34/09 A2974 RMK A01 T03360091  RH  022%=      5-min Rain = 0
KWE2 242055Z 18011KT 34/09 A2974 RMK A01 T03350086  RH  022%=      5-min Rain = 0
KWE2 242056Z 18008KT 33/09 A2974 RMK A01 T03340087  RH  022%=      5-min Rain = 0
KWE2 242057Z 18008KT 34/09 A2974 RMK A01 T03350088  RH  022%=      5-min Rain = 0
KWE2 242058Z 16007KT 33/09 A2974 RMK A01 T03340086  RH  022%=      5-min Rain = 0
KWE2 242059Z 17006KT 33/09 A2973 RMK A01 T03340087  RH  022%=      5-min Rain = 0
KWE2 242100Z 17004KT 34/08 A2973 RMK A01 T03350084  RH  021%=      5-min Rain = 0
KWE2 242101Z 12003KT 33/08 A2973 RMK A01 T03320083  RH  022%=      5-min Rain = 0
KWE2 242102Z 14003KT 33/08 A2973 RMK A01 T03300081  RH  021%=      5-min Rain = 0
KWE2 242103Z 12009KT 33/08 A2973 RMK A01 T03290081  RH  022%=      5-min Rain = 0
KWE2 242104Z 10005KT 33/08 A2973 RMK A01 T03300079  RH  021%=      5-min Rain = 0
KWE2 242105Z 03002KT 33/08 A2973 RMK A01 T03300081  RH  022%=      5-min Rain = 0
KWE2 242106Z 33002KT 33/08 A2973 RMK A01 T03310080  RH  021%=      5-min Rain = 0
KWE2 242107Z 31001KT 33/08 A2973 RMK A01 T03300080  RH  021%=      5-min Rain = 0
KWE2 242108Z 29002KT 33/08 A2972 RMK A01 T03300080  RH  021%=      5-min Rain = 0
KWE2 242109Z 32002KT 33/08 A2972 RMK A01 T03320078  RH  021%=      5-min Rain = 0
KWE2 242110Z 21001KT 33/08 A2972 RMK A01 T03320081  RH  021%=      5-min Rain = 0
KWE2 242111Z 27002KT 33/08 A2972 RMK A01 T03330082  RH  021%=      5-min Rain = 0
KWE2 242112Z 06003KT 34/09 A2972 RMK A01 T03360086  RH  021%=      5-min Rain = 0
KWE2 242113Z 14004KT 34/08 A2972 RMK A01 T03380083  RH  021%=      5-min Rain = 0
KWE2 242114Z 12008KT 34/08 A2972 RMK A01 T03390083  RH  021%=      5-min Rain = 0
KWE2 242115Z 14008KT 34/08 A2972 RMK A01 T03370079  RH  020%=      5-min Rain = 0
KWE2 242116Z 15012KT 33/08 A2972 RMK A01 T03340081  RH  021%=      5-min Rain = 0
KWE2 242117Z 15007KT 33/08 A2971 RMK A01 T03300080  RH  021%=      5-min Rain = 0
KWE2 242118Z 15009KT 33/08 A2971 RMK A01 T03290082  RH  022%=      5-min Rain = 0
KWE2 242119Z 16008KT 33/08 A2971 RMK A01 T03310083  RH  022%=      5-min Rain = 0
KWE2 242120Z 19008KT 33/08 A2971 RMK A01 T03300083  RH  022%=      5-min Rain = 0
KWE2 242121Z 18010KT 33/08 A2971 RMK A01 T03300083  RH  022%=      5-min Rain = 0
KWE2 242122Z 18007KT 33/08 A2971 RMK A01 T03310083  RH  022%=      5-min Rain = 0
KWE2 242123Z 17008KT 33/08 A2971 RMK A01 T03310084  RH  022%=      5-min Rain = 0
KWE2 242124Z 18009KT 33/09 A2971 RMK A01 T03330085  RH  022%=      5-min Rain = 0
KWE2 242125Z 19008KT 34/09 A2971 RMK A01 T03370085  RH  021%=      5-min Rain = 0
KWE2 242126Z 18009KT 34/08 A2971 RMK A01 T03400084  RH  021%=      5-min Rain = 0
KWE2 242127Z 16006KT 34/09 A2971 RMK A01 T03410085  RH  021%=      5-min Rain = 0
KWE2 242128Z 18006KT 34/08 A2971 RMK A01 T03370084  RH  021%=      5-min Rain = 0
KWE2 242129Z 18004KT 33/08 A2971 RMK A01 T03330080  RH  021%=      5-min Rain = 0
KWE2 242130Z 18006KT 33/08 A2971 RMK A01 T03300081  RH  022%=      5-min Rain = 0
KWE2 242131Z 19003KT 33/08 A2971 RMK A01 T03290083  RH  022%=      5-min Rain = 0
KWE2 242132Z 20003KT 33/09 A297 RMK A01 T03300085  RH  022%=      5-min Rain = 0
KWE2 242133Z 16008KT 33/09 A297 RMK A01 T03330088  RH  022%=      5-min Rain = 0
KWE2 242134Z 13010KT 34/08 A297 RMK A01 T03370080  RH  021%=      5-min Rain = 0
KWE2 242135Z 14009KT 34/08 A297 RMK A01 T03360079  RH  020%=      5-min Rain = 0
KWE2 242136Z 16007KT 33/08 A297 RMK A01 T03340078  RH  021%=      5-min Rain = 0
KWE2 242137Z 18008KT 33/08 A297 RMK A01 T03330078  RH  021%=      5-min Rain = 0
KWE2 242138Z 20006KT 33/08 A297 RMK A01 T03300076  RH  021%=      5-min Rain = 0
KWE2 242139Z 18008KT 33/08 A297 RMK A01 T03280077  RH  021%=      5-min Rain = 0
KWE2 242140Z 12006KT 33/08 A297 RMK A01 T03270076  RH  021%=      5-min Rain = 0
KWE2 242141Z 11005KT 33/08 A297 RMK A01 T03270076  RH  021%=      5-min Rain = 0
KWE2 242142Z 10002KT 33/08 A297 RMK A01 T03270075  RH  021%=      5-min Rain = 0
KWE2 242143Z 13002KT 33/08 A297 RMK A01 T03270076  RH  021%=      5-min Rain = 0
KWE2 242144Z 18006KT 33/08 A297 RMK A01 T03280078  RH  021%=      5-min Rain = 0
KWE2 242145Z 17008KT 33/08 A297 RMK A01 T03300077  RH  021%=      5-min Rain = 0
KWE2 242146Z 16006KT 33/07 A297 RMK A01 T03320073  RH  020%=      5-min Rain = 0
KWE2 242147Z 18009KT 33/08 A2969 RMK A01 T03310077  RH  021%=      5-min Rain = 0
KWE2 242148Z 16007KT 33/08 A2969 RMK A01 T03330076  RH  020%=      5-min Rain = 0
KWE2 242149Z 16005KT 33/07 A2969 RMK A01 T03310074  RH  020%=      5-min Rain = 0
KWE2 242150Z 16009KT 33/07 A2969 RMK A01 T03310074  RH  020%=      5-min Rain = 0
KWE2 242151Z 16007KT 33/07 A2969 RMK A01 T03310069  RH  020%=      5-min Rain = 0
KWE2 242152Z 19009KT 33/07 A2969 RMK A01 T03300071  RH  020%=      5-min Rain = 0
KWE2 242153Z 17008KT 33/07 A2969 RMK A01 T03300069  RH  020%=      5-min Rain = 0
KWE2 242154Z 16004KT 33/07 A2969 RMK A01 T03300067  RH  020%=      5-min Rain = 0
KWE2 242155Z 15006KT 33/07 A2969 RMK A01 T03290069  RH  020%=      5-min Rain = 0
KWE2 242156Z 16005KT 33/07 A2969 RMK A01 T03290071  RH  020%=      5-min Rain = 0
KWE2 242157Z 19005G11KT 33/07 A2969 RMK A01 T03320074  RH  020%=      5-min Rain = 0
KWE2 242158Z 23011KT 34/07 A2969 RMK A01 T03360070  RH  019%=      5-min Rain = 0
KWE2 242159Z 25008KT 34/07 A2969 RMK A01 T03380068  RH  019%=      5-min Rain = 0
KWE2 242200Z 25008KT 34/07 A2969 RMK A01 T03370067  RH  019%=      5-min Rain = 0
KWE2 242201Z 24008KT 34/07 A2969 RMK A01 T03360067  RH  019%=      5-min Rain = 0
KWE2 242202Z 23008KT 34/07 A2969 RMK A01 T03350066  RH  019%=      5-min Rain = 0
KWE2 242203Z 21008KT 33/07 A2969 RMK A01 T03330067  RH  019%=      5-min Rain = 0
KWE2 242204Z 21006KT 33/07 A2969 RMK A01 T03300067  RH  020%=      5-min Rain = 0
KWE2 242205Z 26004KT 33/07 A2969 RMK A01 T03280067  RH  020%=      5-min Rain = 0
KWE2 242206Z 24004KT 33/07 A2969 RMK A01 T03290066  RH  019%=      5-min Rain = 0
KWE2 242207Z 23007KT 33/07 A2969 RMK A01 T03290067  RH  020%=      5-min Rain = 0
KWE2 242208Z 25006KT 33/07 A2969 RMK A01 T03300066  RH  019%=      5-min Rain = 0
KWE2 242209Z 22007KT 33/07 A2969 RMK A01 T03300067  RH  019%=      5-min Rain = 0
KWE2 242210Z 22007KT 33/07 A2969 RMK A01 T03300068  RH  020%=      5-min Rain = 0
KWE2 242211Z 21008KT 33/07 A2969 RMK A01 T03320068  RH  019%=      5-min Rain = 0
KWE2 242212Z 21007KT 33/07 A2968 RMK A01 T03310066  RH  019%=      5-min Rain = 0
KWE2 242213Z 22006KT 33/07 A2968 RMK A01 T03300066  RH  019%=      5-min Rain = 0
KWE2 242214Z 21005KT 33/07 A2968 RMK A01 T03300065  RH  019%=      5-min Rain = 0
KWE2 242215Z 23007KT 33/07 A2968 RMK A01 T03290067  RH  020%=      5-min Rain = 0
KWE2 242216Z 24007KT 33/06 A2968 RMK A01 T03300064  RH  019%=      5-min Rain = 0
KWE2 242217Z 24006KT 33/06 A2968 RMK A01 T03300061  RH  019%=      5-min Rain = 0
KWE2 242218Z 23006KT 33/06 A2968 RMK A01 T03280063  RH  019%=      5-min Rain = 0
KWE2 242219Z 24007KT 33/06 A2968 RMK A01 T03300063  RH  019%=      5-min Rain = 0
KWE2 242220Z 24006KT 33/06 A2968 RMK A01 T03300062  RH  019%=      5-min Rain = 0
KWE2 242221Z 25005KT 33/06 A2968 RMK A01 T03290061  RH  019%=      5-min Rain = 0
KWE2 242222Z 26005KT 33/06 A2968 RMK A01 T03280059  RH  019%=      5-min Rain = 0
KWE2 242223Z 25004KT 33/06 A2968 RMK A01 T03280058  RH  019%=      5-min Rain = 0
KWE2 242224Z 23007KT 33/06 A2968 RMK A01 T03270059  RH  019%=      5-min Rain = 0
KWE2 242225Z 25006KT 33/06 A2968 RMK A01 T03290060  RH  019%=      5-min Rain = 0
KWE2 242226Z 24005KT 33/06 A2968 RMK A01 T03310061  RH  019%=      5-min Rain = 0
KWE2 242227Z 26007KT 33/06 A2968 RMK A01 T03320060  RH  018%=      5-min Rain = 0
KWE2 242228Z 25008KT 33/06 A2968 RMK A01 T03320059  RH  018%=      5-min Rain = 0
KWE2 242229Z 24004KT 33/06 A2967 RMK A01 T03300059  RH  018%=      5-min Rain = 0
KWE2 242230Z 24006KT 33/06 A2967 RMK A01 T03280059  RH  019%=      5-min Rain = 0
KWE2 242231Z 23006KT 33/06 A2967 RMK A01 T03270060  RH  019%=      5-min Rain = 0
KWE2 242232Z 24006KT 33/06 A2967 RMK A01 T03270060  RH  019%=      5-min Rain = 0
KWE2 242233Z 24006KT 33/06 A2967 RMK A01 T03270060  RH  019%=      5-min Rain = 0
KWE2 242234Z 23004KT 33/06 A2967 RMK A01 T03280061  RH  019%=      5-min Rain = 0
KWE2 242235Z 23003KT 33/06 A2967 RMK A01 T03260061  RH  019%=      5-min Rain = 0
KWE2 242236Z 22005KT 33/06 A2967 RMK A01 T03260063  RH  019%=      5-min Rain = 0
KWE2 242237Z 23005KT 33/06 A2967 RMK A01 T03250061  RH  019%=      5-min Rain = 0
KWE2 242238Z 21004KT 33/06 A2967 RMK A01 T03250061  RH  019%=      5-min Rain = 0
KWE2 242239Z 19003KT 33/06 A2967 RMK A01 T03250064  RH  020%=      5-min Rain = 0
KWE2 242240Z 16004KT 32/07 A2967 RMK A01 T03240068  RH  020%=      5-min Rain = 0
KWE2 242241Z 16005KT 32/07 A2967 RMK A01 T03240070  RH  021%=      5-min Rain = 0
KWE2 242242Z 18007KT 32/07 A2967 RMK A01 T03240071  RH  021%=      5-min Rain = 0
KWE2 242243Z 18011KT 32/07 A2966 RMK A01 T03240068  RH  020%=      5-min Rain = 0
KWE2 242244Z 19010KT 32/07 A2966 RMK A01 T03240066  RH  020%=      5-min Rain = 0
KWE2 242245Z 18008KT 32/06 A2966 RMK A01 T03230064  RH  020%=      5-min Rain = 0
KWE2 242246Z 19009KT 32/07 A2966 RMK A01 T03230066  RH  020%=      5-min Rain = 0
KWE2 242247Z 19009KT 32/07 A2966 RMK A01 T03230066  RH  020%=      5-min Rain = 0
KWE2 242248Z 19010KT 32/07 A2966 RMK A01 T03240065  RH  020%=      5-min Rain = 0
KWE2 242249Z 19010KT 32/06 A2966 RMK A01 T03240064  RH  020%=      5-min Rain = 0
KWE2 242250Z 18010KT 32/07 A2966 RMK A01 T03240067  RH  020%=      5-min Rain = 0
KWE2 242251Z 18009KT 32/07 A2966 RMK A01 T03240074  RH  021%=      5-min Rain = 0
KWE2 242252Z 18010KT 32/08 A2966 RMK A01 T03240077  RH  022%=      5-min Rain = 0
KWE2 242253Z 18011KT 32/07 A2966 RMK A01 T03240071  RH  021%=      5-min Rain = 0
KWE2 242254Z 18011KT 32/07 A2966 RMK A01 T03230068  RH  020%=      5-min Rain = 0
KWE2 242255Z 18010KT 32/07 A2966 RMK A01 T03220069  RH  021%=      5-min Rain = 0
KWE2 242256Z 19010KT 32/07 A2966 RMK A01 T03220072  RH  021%=      5-min Rain = 0
KWE2 242257Z 19009KT 32/07 A2966 RMK A01 T03220071  RH  021%=      5-min Rain = 0
KWE2 242258Z 18009KT 32/07 A2966 RMK A01 T03220074  RH  021%=      5-min Rain = 0
KWE2 242259Z 18008KT 32/07 A2966 RMK A01 T03220073  RH  021%=      5-min Rain = 0
KWE2 242300Z 19008KT 32/07 A2966 RMK A01 T03210070  RH  021%=      5-min Rain = 0
KWE2 242301Z 21011KT 32/07 A2966 RMK A01 T03210070  RH  021%=      5-min Rain = 0
KWE2 242302Z 20011KT 32/07 A2966 RMK A01 T03220067  RH  020%=      5-min Rain = 0
KWE2 242303Z 20010KT 32/07 A2966 RMK A01 T03220066  RH  020%=      5-min Rain = 0
KWE2 242304Z 21008KT 32/07 A2966 RMK A01 T03220067  RH  020%=      5-min Rain = 0
KWE2 242305Z 20008KT 32/07 A2966 RMK A01 T03230069  RH  021%=      5-min Rain = 0
KWE2 242306Z 21010KT 32/07 A2966 RMK A01 T03240071  RH  021%=      5-min Rain = 0
KWE2 242307Z 21011KT 32/07 A2966 RMK A01 T03230068  RH  020%=      5-min Rain = 0
KWE2 242308Z 21009KT 32/07 A2966 RMK A01 T03220070  RH  021%=      5-min Rain = 0
KWE2 242309Z 20010KT 32/07 A2966 RMK A01 T03210070  RH  021%=      5-min Rain = 0
KWE2 242310Z 20011KT 32/07 A2966 RMK A01 T03220069  RH  021%=      5-min Rain = 0
KWE2 242311Z 20010KT 32/07 A2966 RMK A01 T03210069  RH  021%=      5-min Rain = 0
KWE2 242312Z 21010KT 32/07 A2966 RMK A01 T03210068  RH  021%=      5-min Rain = 0
KWE2 242313Z 21010KT 32/07 A2965 RMK A01 T03210066  RH  020%=      5-min Rain = 0
KWE2 242314Z 21012KT 32/07 A2965 RMK A01 T03210065  RH  020%=      5-min Rain = 0
KWE2 242315Z 21010KT 32/06 A2965 RMK A01 T03210064  RH  020%=      5-min Rain = 0
KWE2 242316Z 21010KT 32/07 A2965 RMK A01 T03210065  RH  020%=      5-min Rain = 0
KWE2 242317Z 21011KT 32/07 A2965 RMK A01 T03210065  RH  020%=      5-min Rain = 0
KWE2 242318Z 21010KT 32/07 A2965 RMK A01 T03210067  RH  021%=      5-min Rain = 0
KWE2 242319Z 21010KT 32/07 A2965 RMK A01 T03200066  RH  021%=      5-min Rain = 0
KWE2 242320Z 21010KT 32/07 A2965 RMK A01 T03200065  RH  020%=      5-min Rain = 0
KWE2 242321Z 21010KT 32/06 A2966 RMK A01 T03190064  RH  020%=      5-min Rain = 0
KWE2 242322Z 20015KT 32/04 A2966 RMK A01 T03190044  RH  018%=      5-min Rain = 0
KWE2 242323Z 20014KT 32/03 A2966 RMK A01 T03180029  RH  016%=      5-min Rain = 0
KWE2 242324Z 20019KT 32/03 A2966 RMK A01 T03180025  RH  016%=      5-min Rain = 0
KWE2 242325Z 19022KT 32/02 A2966 RMK A01 T03170020  RH  015%=      5-min Rain = 0
KWE2 242326Z 21020KT 32/02 A2966 RMK A01 T03150023  RH  016%=      5-min Rain = 0
KWE2 242327Z 21018G23KT 31/03 A2966 RMK A01 T03130033  RH  017%=      5-min Rain = 0
KWE2 242328Z 21015KT 31/04 A2967 RMK A01 T03120038  RH  018%=      5-min Rain = 0
KWE2 242329Z 21017KT 31/04 A2967 RMK A01 T03110044  RH  019%=      5-min Rain = 0
KWE2 242330Z 22019G24KT 31/05 A2967 RMK A01 T03090049  RH  019%=      5-min Rain = 0
KWE2 242331Z 23024KT 31/05 A2966 RMK A01 T03080047  RH  019%=      5-min Rain = 0
KWE2 242332Z 23022KT 31/04 A2966 RMK A01 T03070044  RH  019%=      5-min Rain = 0
KWE2 242333Z 23020KT 31/04 A2966 RMK A01 T03060044  RH  019%=      5-min Rain = 0
KWE2 242334Z 21017KT 31/05 A2966 RMK A01 T03060046  RH  019%=      5-min Rain = 0
KWE2 242335Z 21018KT 31/05 A2966 RMK A01 T03050050  RH  020%=      5-min Rain = 0
KWE2 242336Z 21017KT 30/05 A2966 RMK A01 T03040051  RH  020%=      5-min Rain = 0
KWE2 242337Z 22016KT 30/05 A2966 RMK A01 T03030052  RH  020%=      5-min Rain = 0
KWE2 242338Z 21019KT 30/05 A2966 RMK A01 T03020048  RH  020%=      5-min Rain = 0
KWE2 242339Z 21020KT 30/04 A2965 RMK A01 T03020041  RH  019%=      5-min Rain = 0
KWE2 242340Z 21019G25KT 30/03 A2965 RMK A01 T03020029  RH  018%=      5-min Rain = 0
KWE2 242341Z 22024G30KT 30/02 A2965 RMK A01 T03030021  RH  017%=      5-min Rain = 0
KWE2 242342Z 22025KT 30/02 A2964 RMK A01 T03040018  RH  016%=      5-min Rain = 0
KWE2 242343Z 22020KT 30/02 A2965 RMK A01 T03040019  RH  016%=      5-min Rain = 0
KWE2 242344Z 22017G23KT 30/01 A2965 RMK A01 T03040013  RH  016%=      5-min Rain = 0
KWE2 242345Z 21019G25KT 31/01 A2964 RMK A01 T03050007  RH  015%=      5-min Rain = 0
KWE2 242346Z 21021KT 31/01 A2964 RMK A01 T03070005  RH  014%=      5-min Rain = 0
KWE2 242347Z 22017KT 31/00 A2964 RMK A01 T03080001  RH  014%=      5-min Rain = 0
KWE2 242348Z 23013G19KT 31/M00 A2964 RMK A01 T03091002  RH  013%=      5-min Rain = 0
KWE2 242349Z 25015KT 31/M00 A2964 RMK A01 T03111001  RH  013%=      5-min Rain = 0
KWE2 242350Z 25013KT 31/M00 A2965 RMK A01 T03131001  RH  013%=      5-min Rain = 0
KWE2 242351Z 24012KT 31/M00 A2965 RMK A01 T03141002  RH  013%=      5-min Rain = 0
KWE2 242352Z 26012KT 32/M00 A2965 RMK A01 T03151001  RH  013%=      5-min Rain = 0
KWE2 242353Z 24013KT 32/M00 A2965 RMK A01 T03151002  RH  013%=      5-min Rain = 0
KWE2 242354Z 23012KT 31/M00 A2965 RMK A01 T03141002  RH  013%=      5-min Rain = 0
KWE2 242355Z 21015KT 31/01 A2965 RMK A01 T03120007  RH  014%=      5-min Rain = 0
KWE2 242356Z 20014KT 31/01 A2965 RMK A01 T03080008  RH  015%=      5-min Rain = 0
KWE2 242357Z 20015KT 31/01 A2965 RMK A01 T03060009  RH  015%=      5-min Rain = 0
KWE2 242358Z 20016KT 30/01 A2965 RMK A01 T03040013  RH  015%=      5-min Rain = 0
KWE2 242359Z 21016KT 30/01 A2964 RMK A01 T03030013  RH  016%=      5-min Rain = 0
KWE2 250000Z 21012KT 30/01 A2964 RMK A01 T03020010  RH  015%=      5-min Rain = 0
KWE2 250001Z 21011KT 30/01 A2964 RMK A01 T03040006  RH  015%=      5-min Rain = 0
KWE2 250002Z 21011KT 31/01 A2964 RMK A01 T03050010  RH  015%=      5-min Rain = 0
KWE2 250003Z 22010KT 31/01 A2964 RMK A01 T03050010  RH  015%=      5-min Rain = 0
KWE2 250004Z 20010KT 31/01 A2964 RMK A01 T03050009  RH  015%=      5-min Rain = 0
KWE2 250005Z 20010KT 30/01 A2964 RMK A01 T03040012  RH  015%=      5-min Rain = 0
KWE2 250006Z 21012KT 30/01 A2964 RMK A01 T03030013  RH  016%=      5-min Rain = 0
KWE2 250007Z 21010KT 30/01 A2964 RMK A01 T03020013  RH  016%=      5-min Rain = 0
KWE2 250008Z 21011KT 30/01 A2964 RMK A01 T03010013  RH  016%=      5-min Rain = 0
KWE2 250009Z 21012KT 30/01 A2964 RMK A01 T03010012  RH  016%=      5-min Rain = 0
KWE2 250010Z 21011KT 30/01 A2964 RMK A01 T03020011  RH  015%=      5-min Rain = 0
KWE2 250011Z 21013KT 30/01 A2964 RMK A01 T03020012  RH  016%=      5-min Rain = 0
KWE2 250012Z 22013KT 30/02 A2964 RMK A01 T03020016  RH  016%=      5-min Rain = 0
KWE2 250013Z 18018KT 30/04 A2965 RMK A01 T02980040  RH  019%=      5-min Rain = 0
KWE2 250014Z 18021KT 29/07 A2965 RMK A01 T02880067  RH  025%=      5-min Rain = 0
KWE2 250015Z 18026G31KT 28/08 A2965 RMK A01 T02780076  RH  028%=      5-min Rain = 0
KWE2 250016Z 18026KT 27/08 A2965 RMK A01 T02720079  RH  029%=      5-min Rain = 0
KWE2 250017Z 18026KT 27/08 A2965 RMK A01 T02690079  RH  030%=      5-min Rain = 0
KWE2 250018Z 18027KT 27/08 A2965 RMK A01 T02680079  RH  030%=      5-min Rain = 0
KWE2 250019Z 18024G29KT 27/08 A2965 RMK A01 T02670077  RH  030%=      5-min Rain = 0
KWE2 250020Z 18023KT 27/08 A2965 RMK A01 T02670076  RH  030%=      5-min Rain = 0
KWE2 250021Z 18024KT 27/08 A2965 RMK A01 T02670075  RH  030%=      5-min Rain = 0
KWE2 250022Z 18023KT 27/07 A2965 RMK A01 T02670074  RH  029%=      5-min Rain = 0
KWE2 250023Z 18022KT 27/08 A2964 RMK A01 T02670075  RH  030%=      5-min Rain = 0
KWE2 250024Z 18024KT 27/07 A2964 RMK A01 T02670071  RH  029%=      5-min Rain = 0
KWE2 250025Z 18023KT 27/07 A2964 RMK A01 T02680067  RH  028%=      5-min Rain = 0
KWE2 250026Z 18021KT 27/07 A2964 RMK A01 T02700067  RH  027%=      5-min Rain = 0
KWE2 250027Z 18020KT 27/07 A2964 RMK A01 T02700071  RH  028%=      5-min Rain = 0
KWE2 250028Z 19021KT 27/07 A2964 RMK A01 T02690073  RH  029%=      5-min Rain = 0
KWE2 250029Z 19021KT 27/07 A2964 RMK A01 T02680073  RH  029%=      5-min Rain = 0
KWE2 250030Z 18021KT 27/07 A2963 RMK A01 T02680074  RH  029%=      5-min Rain = 0
KWE2 250031Z 18020KT 27/07 A2963 RMK A01 T02670073  RH  029%=      5-min Rain = 0
KWE2 250032Z 18019KT 27/07 A2963 RMK A01 T02670074  RH  029%=      5-min Rain = 0
KWE2 250033Z 18019KT 27/07 A2963 RMK A01 T02660074  RH  030%=      5-min Rain = 0
KWE2 250034Z 18020KT 27/07 A2963 RMK A01 T02660070  RH  029%=      5-min Rain = 0
KWE2 250035Z 18020KT 27/07 A2963 RMK A01 T02670070  RH  028%=      5-min Rain = 0
KWE2 250036Z 18020KT 27/07 A2963 RMK A01 T02680069  RH  028%=      5-min Rain = 0
KWE2 250037Z 17020KT 27/07 A2963 RMK A01 T02680066  RH  028%=      5-min Rain = 0
KWE2 250038Z 17019KT 27/07 A2963 RMK A01 T02680065  RH  028%=      5-min Rain = 0
KWE2 250039Z 18017KT 27/07 A2963 RMK A01 T02670065  RH  028%=      5-min Rain = 0
KWE2 250040Z 17018KT 27/07 A2963 RMK A01 T02680066  RH  028%=      5-min Rain = 0
KWE2 250041Z 17017KT 27/07 A2963 RMK A01 T02670065  RH  028%=      5-min Rain = 0
KWE2 250042Z 17018KT 27/06 A2963 RMK A01 T02670064  RH  027%=      5-min Rain = 0
KWE2 250043Z 17017KT 27/06 A2963 RMK A01 T02670063  RH  027%=      5-min Rain = 0
KWE2 250044Z 17016KT 27/06 A2963 RMK A01 T02670062  RH  027%=      5-min Rain = 0
KWE2 250045Z 17016KT 27/06 A2963 RMK A01 T02670062  RH  027%=      5-min Rain = 0
KWE2 250046Z 16017KT 27/06 A2963 RMK A01 T02670062  RH  027%=      5-min Rain = 0
KWE2 250047Z 16018KT 27/06 A2963 RMK A01 T02670061  RH  027%=      5-min Rain = 0
KWE2 250048Z 16018KT 27/06 A2963 RMK A01 T02670060  RH  027%=      5-min Rain = 0
KWE2 250049Z 17019KT 27/06 A2963 RMK A01 T02670059  RH  027%=      5-min Rain = 0
KWE2 250050Z 17018KT 27/06 A2963 RMK A01 T02680057  RH  026%=      5-min Rain = 0
KWE2 250051Z 17017G22KT 27/06 A2964 RMK A01 T02680059  RH  026%=      5-min Rain = 0
KWE2 250052Z 17018KT 27/06 A2964 RMK A01 T02680059  RH  026%=      5-min Rain = 0
KWE2 250053Z 17019KT 27/06 A2964 RMK A01 T02680059  RH  026%=      5-min Rain = 0
KWE2 250054Z 17016KT 27/06 A2964 RMK A01 T02680060  RH  027%=      5-min Rain = 0
KWE2 250055Z 17016KT 27/06 A2964 RMK A01 T02680061  RH  027%=      5-min Rain = 0
KWE2 250056Z 17017KT 27/06 A2965 RMK A01 T02670061  RH  027%=      5-min Rain = 0
KWE2 250057Z 17016KT 27/06 A2965 RMK A01 T02670062  RH  027%=      5-min Rain = 0
KWE2 250058Z 16017KT 27/06 A2965 RMK A01 T02660062  RH  027%=      5-min Rain = 0
KWE2 250059Z 16017KT 27/06 A2965 RMK A01 T02660062  RH  027%=      5-min Rain = 0
KWE2 250100Z 16015KT 27/06 A2965 RMK A01 T02660062  RH  027%=      5-min Rain = 0
KWE2 250101Z 16014KT 27/06 A2965 RMK A01 T02650062  RH  027%=      5-min Rain = 0
KWE2 250102Z 16013KT 27/06 A2965 RMK A01 T02650063  RH  028%=      5-min Rain = 0
KWE2 250103Z 17012KT 27/06 A2965 RMK A01 T02650063  RH  028%=      5-min Rain = 0
KWE2 250104Z 17013KT 27/06 A2965 RMK A01 T02650062  RH  027%=      5-min Rain = 0
KWE2 250105Z 17012KT 27/06 A2965 RMK A01 T02650061  RH  027%=      5-min Rain = 0
KWE2 250106Z 18012KT 27/06 A2965 RMK A01 T02650060  RH  027%=      5-min Rain = 0
KWE2 250107Z 17010KT 27/06 A2966 RMK A01 T02650060  RH  027%=      5-min Rain = 0
KWE2 250108Z 16009KT 27/06 A2966 RMK A01 T02660061  RH  027%=      5-min Rain = 0
KWE2 250109Z 16008KT 27/06 A2966 RMK A01 T02660061  RH  027%=      5-min Rain = 0
KWE2 250110Z 15006KT 27/06 A2967 RMK A01 T02650062  RH  027%=      5-min Rain = 0
KWE2 250111Z 14006KT 27/06 A2967 RMK A01 T02650063  RH  028%=      5-min Rain = 0
KWE2 250112Z 12005KT 26/06 A2967 RMK A01 T02640064  RH  028%=      5-min Rain = 0
KWE2 250113Z 09005KT 26/06 A2968 RMK A01 T02640062  RH  028%=      5-min Rain = 0
KWE2 250114Z 07006KT 26/06 A2968 RMK A01 T02640061  RH  027%=      5-min Rain = 0
KWE2 250115Z 05007KT 26/06 A2968 RMK A01 T02640061  RH  027%=      5-min Rain = 0
KWE2 250116Z 05007KT 26/06 A2968 RMK A01 T02640063  RH  028%=      5-min Rain = 0
KWE2 250117Z 05006KT 26/06 A2969 RMK A01 T02640063  RH  028%=      5-min Rain = 0
KWE2 250118Z 05005KT 26/06 A2969 RMK A01 T02630061  RH  027%=      5-min Rain = 0
KWE2 250119Z 05005KT 26/06 A2969 RMK A01 T02630061  RH  027%=      5-min Rain = 0
KWE2 250120Z 03005KT 26/06 A2969 RMK A01 T02640062  RH  027%=      5-min Rain = 0
KWE2 250121Z 03007KT 26/06 A2969 RMK A01 T02640061  RH  027%=      5-min Rain = 0
KWE2 250122Z 03006KT 26/06 A2969 RMK A01 T02640060  RH  027%=      5-min Rain = 0
KWE2 250123Z 03006KT 26/06 A2969 RMK A01 T02640060  RH  027%=      5-min Rain = 0
KWE2 250124Z 05005KT 26/06 A2969 RMK A01 T02640060  RH  027%=      5-min Rain = 0
KWE2 250125Z 06003KT 26/06 A2969 RMK A01 T02640059  RH  027%=      5-min Rain = 0
KWE2 250126Z 05004KT 26/06 A2969 RMK A01 T02640060  RH  027%=      5-min Rain = 0
KWE2 250127Z 05005KT 26/06 A2969 RMK A01 T02640059  RH  027%=      5-min Rain = 0
KWE2 250128Z 04003KT 27/06 A2969 RMK A01 T02650059  RH  027%=      5-min Rain = 0
KWE2 250129Z 04004KT 27/06 A2969 RMK A01 T02650059  RH  027%=      5-min Rain = 0
KWE2 250130Z 04003KT 27/06 A2969 RMK A01 T02650059  RH  027%=      5-min Rain = 0
KWE2 250131Z 05002KT 27/06 A2969 RMK A01 T02650060  RH  027%=      5-min Rain = 0
KWE2 250132Z 08001KT 27/06 A2968 RMK A01 T02650061  RH  027%=      5-min Rain = 0
KWE2 250133Z 08002KT 26/06 A2968 RMK A01 T02640060  RH  027%=      5-min Rain = 0
KWE2 250134Z 06002KT 26/06 A2968 RMK A01 T02640058  RH  027%=      5-min Rain = 0
KWE2 250135Z 10001KT 26/06 A2968 RMK A01 T02640060  RH  027%=      5-min Rain = 0
KWE2 250136Z 12001KT 26/06 A2968 RMK A01 T02640057  RH  027%=      5-min Rain = 0
KWE2 250137Z 10001KT 26/06 A2968 RMK A01 T02640058  RH  027%=      5-min Rain = 0
KWE2 250138Z 19002KT 27/06 A2968 RMK A01 T02650057  RH  026%=      5-min Rain = 0
KWE2 250139Z 19003KT 27/06 A2968 RMK A01 T02650056  RH  026%=      5-min Rain = 0
KWE2 250140Z 17002KT 27/05 A2968 RMK A01 T02660052  RH  025%=      5-min Rain = 0
KWE2 250141Z 15003KT 27/05 A2968 RMK A01 T02680054  RH  025%=      5-min Rain = 0
KWE2 250142Z 14004KT 27/05 A2968 RMK A01 T02670054  RH  026%=      5-min Rain = 0
KWE2 250143Z 13005KT 27/05 A2968 RMK A01 T02670052  RH  025%=      5-min Rain = 0
KWE2 250144Z 14004KT 27/05 A2969 RMK A01 T02670051  RH  025%=      5-min Rain = 0
KWE2 250145Z 13005KT 27/05 A2969 RMK A01 T02680052  RH  025%=      5-min Rain = 0
KWE2 250146Z 13006KT 27/05 A2969 RMK A01 T02680053  RH  025%=      5-min Rain = 0
KWE2 250147Z 11007KT 27/05 A2969 RMK A01 T02680053  RH  025%=      5-min Rain = 0
KWE2 250148Z 12006KT 27/05 A2969 RMK A01 T02670054  RH  026%=      5-min Rain = 0
KWE2 250149Z 12007KT 27/06 A2969 RMK A01 T02660056  RH  026%=      5-min Rain = 0
KWE2 250150Z 11007KT 26/06 A2969 RMK A01 T02640056  RH  026%=      5-min Rain = 0
KWE2 250151Z 10007KT 26/06 A2969 RMK A01 T02620055  RH  027%=      5-min Rain = 0
KWE2 250152Z 09007KT 26/05 A2969 RMK A01 T02610054  RH  027%=      5-min Rain = 0
KWE2 250153Z 09007KT 26/06 A297 RMK A01 T02600056  RH  027%=      5-min Rain = 0
KWE2 250154Z 09006KT 26/06 A297 RMK A01 T02600056  RH  027%=      5-min Rain = 0
KWE2 250155Z 09006KT 26/06 A297 RMK A01 T02600055  RH  027%=      5-min Rain = 0
KWE2 250156Z 09006KT 26/05 A297 RMK A01 T02610054  RH  027%=      5-min Rain = 0
KWE2 250157Z 08005KT 26/05 A297 RMK A01 T02610054  RH  026%=      5-min Rain = 0
KWE2 250158Z 10005KT 26/05 A297 RMK A01 T02620054  RH  026%=      5-min Rain = 0
KWE2 250159Z 07006KT 26/06 A297 RMK A01 T02620055  RH  027%=      5-min Rain = 0
KWE2 250200Z 07008KT 26/06 A297 RMK A01 T02620056  RH  027%=      5-min Rain = 0
KWE2 250201Z 07010KT 26/06 A297 RMK A01 T02620058  RH  027%=      5-min Rain = 0
KWE2 250202Z 08010KT 26/06 A297 RMK A01 T02630059  RH  027%=      5-min Rain = 0
KWE2 250203Z 09010KT 26/06 A297 RMK A01 T02630060  RH  027%=      5-min Rain = 0
KWE2 250204Z 09010KT 26/06 A297 RMK A01 T02610061  RH  028%=      5-min Rain = 0
KWE2 250205Z 09010KT 26/06 A297 RMK A01 T02600062  RH  028%=      5-min Rain = 0
KWE2 250206Z 08010KT 26/06 A2971 RMK A01 T02590063  RH  029%=      5-min Rain = 0
KWE2 250207Z 08010KT 26/06 A2971 RMK A01 T02580063  RH  029%=      5-min Rain = 0
KWE2 250208Z 08009KT 26/06 A2971 RMK A01 T02590063  RH  029%=      5-min Rain = 0
KWE2 250209Z 09009KT 26/06 A2971 RMK A01 T02590063  RH  029%=      5-min Rain = 0
KWE2 250210Z 09008KT 26/06 A2971 RMK A01 T02590064  RH  029%=      5-min Rain = 0
KWE2 250211Z 09008KT 26/06 A2971 RMK A01 T02590064  RH  029%=      5-min Rain = 0
KWE2 250212Z 09010KT 26/07 A2971 RMK A01 T02580065  RH  029%=      5-min Rain = 0
KWE2 250213Z 09014KT 26/08 A2971 RMK A01 T02550078  RH  032%=      5-min Rain = 0
KWE2 250214Z 09013KT 25/09 A2971 RMK A01 T02480093  RH  037%=      5-min Rain = 0
KWE2 250215Z 08013KT 24/10 A2971 RMK A01 T02410096  RH  040%=      5-min Rain = 0
KWE2 250216Z 07013G18KT 24/10 A2971 RMK A01 T02380102  RH  042%=      5-min Rain = 0
KWE2 250217Z 07017KT 23/11 A2972 RMK A01 T02300111  RH  047%=      5-min Rain = 0
KWE2 250218Z 08014KT 22/11 A2972 RMK A01 T02220113  RH  050%=      5-min Rain = 0
KWE2 250219Z 08013KT 22/11 A2973 RMK A01 T02180114  RH  051%=      5-min Rain = 0
KWE2 250220Z 08014G19KT 22/11 A2973 RMK A01 T02160113  RH  052%=      5-min Rain = 0
KWE2 250221Z 08018G24KT 21/11 A2973 RMK A01 T02140113  RH  053%=      5-min Rain = 0
KWE2 250222Z 08015KT 21/11 A2973 RMK A01 T02110112  RH  053%=      5-min Rain = 0
KWE2 250223Z 07015KT 21/11 A2973 RMK A01 T02090112  RH  054%=      5-min Rain = 0
KWE2 250224Z 08014KT 21/11 A2973 RMK A01 T02070112  RH  054%=      5-min Rain = 0
KWE2 250225Z 07015KT 21/11 A2973 RMK A01 T02060112  RH  055%=      5-min Rain = 0
KWE2 250226Z 07014KT 20/11 A2973 RMK A01 T02040112  RH  055%=      5-min Rain = 0
KWE2 250227Z 08013KT 20/11 A2973 RMK A01 T02020112  RH  056%=      5-min Rain = 0
KWE2 250228Z 08010KT 20/11 A2973 RMK A01 T02020112  RH  056%=      5-min Rain = 0
KWE2 250229Z 07009G14KT 20/11 A2973 RMK A01 T02020112  RH  056%=      5-min Rain = 0
KWE2 250230Z 07010KT 20/11 A2973 RMK A01 T02020111  RH  056%=      5-min Rain = 0
KWE2 250231Z 07015G20KT 20/11 A2974 RMK A01 T02020111  RH  056%=      5-min Rain = 0
KWE2 250232Z 07015KT 20/11 A2974 RMK A01 T02010108  RH  055%=      5-min Rain = 0
KWE2 250233Z 08015KT 20/11 A2974 RMK A01 T01990108  RH  055%=      5-min Rain = 0
KWE2 250234Z 08016KT 20/11 A2973 RMK A01 T01980108  RH  056%=      5-min Rain = 0
KWE2 250235Z 07011KT 20/11 A2973 RMK A01 T01970108  RH  056%=      5-min Rain = 0
KWE2 250236Z 06011KT 20/11 A2973 RMK A01 T01970108  RH  056%=      5-min Rain = 0
KWE2 250237Z 06011KT 20/11 A2973 RMK A01 T01970108  RH  056%=      5-min Rain = 0
KWE2 250238Z 07012KT 20/11 A2973 RMK A01 T01960108  RH  057%=      5-min Rain = 0
KWE2 250239Z 07011KT 20/11 A2973 RMK A01 T01960109  RH  057%=      5-min Rain = 0
KWE2 250240Z 06009KT 20/11 A2973 RMK A01 T01950110  RH  058%=      5-min Rain = 0
KWE2 250241Z 05011KT 19/11 A2973 RMK A01 T01940110  RH  058%=      5-min Rain = 0
KWE2 250242Z 06010KT 19/11 A2973 RMK A01 T01940112  RH  059%=      5-min Rain = 0
KWE2 250243Z 07008KT 19/11 A2973 RMK A01 T01920113  RH  060%=      5-min Rain = 0
KWE2 250244Z 06008KT 19/11 A2973 RMK A01 T01920112  RH  060%=      5-min Rain = 0
KWE2 250245Z 05010KT 19/11 A2973 RMK A01 T01910112  RH  060%=      5-min Rain = 0
KWE2 250246Z 05011KT 19/11 A2973 RMK A01 T01900112  RH  060%=      5-min Rain = 0
KWE2 250247Z 05012KT 19/11 A2972 RMK A01 T01890111  RH  060%=      5-min Rain = 0
KWE2 250248Z 06010KT 19/11 A2972 RMK A01 T01890111  RH  060%=      5-min Rain = 0
KWE2 250249Z 06011KT 19/11 A2972 RMK A01 T01890111  RH  061%=      5-min Rain = 0
KWE2 250250Z 06011KT 19/11 A2972 RMK A01 T01880111  RH  061%=      5-min Rain = 0
KWE2 250251Z 06009KT 19/11 A2972 RMK A01 T01880111  RH  061%=      5-min Rain = 0
KWE2 250252Z 06009KT 19/11 A2971 RMK A01 T01880111  RH  061%=      5-min Rain = 0
KWE2 250253Z 06010KT 19/11 A2971 RMK A01 T01870111  RH  061%=      5-min Rain = 0
KWE2 250254Z 07007KT 19/11 A2971 RMK A01 T01870111  RH  061%=      5-min Rain = 0
KWE2 250255Z 07012KT 19/11 A2971 RMK A01 T01870110  RH  061%=      5-min Rain = 0
KWE2 250256Z 07011KT 19/11 A297 RMK A01 T01870109  RH  060%=      5-min Rain = 0
KWE2 250257Z 07009KT 19/11 A297 RMK A01 T01870109  RH  060%=      5-min Rain = 0
KWE2 250258Z 07009KT 19/11 A297 RMK A01 T01870108  RH  060%=      5-min Rain = 0
KWE2 250259Z 07009KT 19/11 A297 RMK A01 T01870107  RH  060%=      5-min Rain = 0
KWE2 250300Z 07008KT 19/11 A297 RMK A01 T01870108  RH  060%=      5-min Rain = 0
KWE2 250301Z 07009KT 19/11 A297 RMK A01 T01870107  RH  060%=      5-min Rain = 0
KWE2 250302Z 08009KT 19/11 A297 RMK A01 T01870107  RH  060%=      5-min Rain = 0
KWE2 250303Z 07010KT 19/11 A2971 RMK A01 T01860107  RH  060%=      5-min Rain = 0
KWE2 250304Z 07008KT 19/11 A2971 RMK A01 T01860106  RH  060%=      5-min Rain = 0
KWE2 250305Z 07010KT 19/11 A2971 RMK A01 T01860106  RH  059%=      5-min Rain = 0
KWE2 250306Z 08012KT 19/11 A2971 RMK A01 T01860105  RH  059%=      5-min Rain = 0
KWE2 250307Z 08010KT 19/10 A2971 RMK A01 T01870104  RH  059%=      5-min Rain = 0
KWE2 250308Z 08011KT 19/10 A2971 RMK A01 T01870104  RH  058%=      5-min Rain = 0
KWE2 250309Z 08009KT 19/10 A2971 RMK A01 T01870104  RH  058%=      5-min Rain = 0
KWE2 250310Z 07010KT 19/11 A2971 RMK A01 T01880105  RH  058%=      5-min Rain = 0
KWE2 250311Z 07009KT 19/11 A2971 RMK A01 T01880105  RH  059%=      5-min Rain = 0
KWE2 250312Z 07010KT 19/11 A2971 RMK A01 T01870105  RH  059%=      5-min Rain = 0
KWE2 250313Z 08012KT 19/11 A2971 RMK A01 T01860105  RH  059%=      5-min Rain = 0
KWE2 250314Z 08011KT 19/11 A2971 RMK A01 T01860106  RH  060%=      5-min Rain = 0
KWE2 250315Z 08008KT 19/11 A2971 RMK A01 T01860106  RH  060%=      5-min Rain = 0
KWE2 250316Z 09013KT 19/11 A2971 RMK A01 T01850106  RH  060%=      5-min Rain = 0
KWE2 250317Z 10012KT 19/11 A2971 RMK A01 T01850106  RH  060%=      5-min Rain = 0
KWE2 250318Z 10012KT 18/11 A2971 RMK A01 T01840107  RH  061%=      5-min Rain = 0
KWE2 250319Z 09012KT 18/11 A2971 RMK A01 T01840107  RH  061%=      5-min Rain = 0
KWE2 250320Z 09010KT 18/11 A2971 RMK A01 T01830108  RH  061%=      5-min Rain = 0
KWE2 250321Z 10010KT 18/11 A2971 RMK A01 T01830107  RH  061%=      5-min Rain = 0
KWE2 250322Z 10010KT 18/11 A2971 RMK A01 T01820108  RH  062%=      5-min Rain = 0
KWE2 250323Z 10010KT 18/11 A2971 RMK A01 T01820108  RH  062%=      5-min Rain = 0
KWE2 250324Z 10010KT 18/11 A2971 RMK A01 T01810108  RH  062%=      5-min Rain = 0
KWE2 250325Z 10010KT 18/11 A2971 RMK A01 T01810109  RH  063%=      5-min Rain = 0
KWE2 250326Z 09008KT 18/11 A2971 RMK A01 T01810109  RH  063%=      5-min Rain = 0
KWE2 250327Z 09010KT 18/11 A2971 RMK A01 T01810110  RH  063%=      5-min Rain = 0
KWE2 250328Z 09009KT 18/11 A2971 RMK A01 T01810110  RH  063%=      5-min Rain = 0
KWE2 250329Z 10009KT 18/11 A2971 RMK A01 T01810110  RH  063%=      5-min Rain = 0
KWE2 250330Z 10009KT 18/11 A2972 RMK A01 T01810110  RH  063%=      5-min Rain = 0
KWE2 250331Z 09007KT 18/11 A2971 RMK A01 T01810110  RH  063%=      5-min Rain = 0
KWE2 250332Z 08007KT 18/11 A2971 RMK A01 T01810110  RH  063%=      5-min Rain = 0
KWE2 250333Z 09008KT 18/11 A2971 RMK A01 T01800111  RH  064%=      5-min Rain = 0
KWE2 250334Z 08008KT 18/11 A2971 RMK A01 T01800110  RH  064%=      5-min Rain = 0
KWE2 250335Z 09010KT 18/11 A2971 RMK A01 T01800110  RH  064%=      5-min Rain = 0
KWE2 250336Z 10010KT 18/11 A2971 RMK A01 T01800110  RH  064%=      5-min Rain = 0
KWE2 250337Z 10008KT 18/11 A2971 RMK A01 T01800110  RH  064%=      5-min Rain = 0
KWE2 250338Z 09007KT 18/11 A2971 RMK A01 T01800110  RH  064%=      5-min Rain = 0
KWE2 250339Z 08008KT 18/11 A2971 RMK A01 T01800110  RH  064%=      5-min Rain = 0
KWE2 250340Z 08008KT 18/11 A2971 RMK A01 T01800110  RH  064%=      5-min Rain = 0
KWE2 250341Z 08007KT 18/11 A2971 RMK A01 T01800110  RH  064%=      5-min Rain = 0
KWE2 250342Z 08007KT 18/11 A2971 RMK A01 T01800110  RH  064%=      5-min Rain = 0
KWE2 250343Z 08006KT 18/11 A2971 RMK A01 T01800109  RH  063%=      5-min Rain = 0
KWE2 250344Z 08006KT 18/11 A2971 RMK A01 T01800109  RH  063%=      5-min Rain = 0
KWE2 250345Z 09007KT 18/11 A2971 RMK A01 T01810109  RH  063%=      5-min Rain = 0
KWE2 250346Z 10007KT 18/11 A2971 RMK A01 T01810109  RH  063%=      5-min Rain = 0
KWE2 250347Z 10008KT 18/11 A2971 RMK A01 T01800108  RH  063%=      5-min Rain = 0
KWE2 250348Z 10007KT 18/11 A2971 RMK A01 T01810109  RH  063%=      5-min Rain = 0
KWE2 250349Z 10008KT 18/11 A2971 RMK A01 T01810108  RH  062%=      5-min Rain = 0
KWE2 250350Z 09007KT 18/11 A2971 RMK A01 T01800107  RH  062%=      5-min Rain = 0
KWE2 250351Z 10007KT 18/11 A2971 RMK A01 T01810107  RH  062%=      5-min Rain = 0
KWE2 250352Z 09007KT 18/11 A2971 RMK A01 T01810107  RH  062%=      5-min Rain = 0
KWE2 250353Z 10009KT 18/11 A2971 RMK A01 T01810106  RH  062%=      5-min Rain = 0
KWE2 250354Z 09008KT 18/11 A2971 RMK A01 T01820106  RH  061%=      5-min Rain = 0
KWE2 250355Z 09009KT 18/11 A2971 RMK A01 T01820106  RH  061%=      5-min Rain = 0
KWE2 250356Z 09010KT 18/11 A2971 RMK A01 T01830106  RH  061%=      5-min Rain = 0
KWE2 250357Z 10009KT 18/11 A2972 RMK A01 T01840106  RH  060%=      5-min Rain = 0
KWE2 250358Z 09008KT 18/11 A2972 RMK A01 T01840106  RH  060%=      5-min Rain = 0
KWE2 250359Z 10008KT 18/11 A2972 RMK A01 T01840106  RH  060%=      5-min Rain = 0
KWE2 250400Z 10007KT 18/11 A2972 RMK A01 T01840106  RH  060%=      5-min Rain = 0
KWE2 250401Z 10010KT 18/11 A2972 RMK A01 T01840106  RH  060%=      5-min Rain = 0
KWE2 250402Z 09010KT 18/11 A2973 RMK A01 T01840106  RH  061%=      5-min Rain = 0
KWE2 250403Z 09009KT 18/11 A2973 RMK A01 T01840106  RH  060%=      5-min Rain = 0
KWE2 250404Z 10011KT 19/11 A2973 RMK A01 T01850107  RH  060%=      5-min Rain = 0
KWE2 250405Z 10012KT 19/11 A2973 RMK A01 T01850107  RH  060%=      5-min Rain = 0
KWE2 250406Z 10012KT 19/11 A2974 RMK A01 T01850107  RH  060%=      5-min Rain = 0
KWE2 250407Z 09009KT 19/11 A2974 RMK A01 T01860108  RH  060%=      5-min Rain = 0
KWE2 250408Z 09011KT 19/11 A2974 RMK A01 T01860108  RH  060%=      5-min Rain = 0
KWE2 250409Z 10011KT 19/11 A2974 RMK A01 T01870109  RH  061%=      5-min Rain = 0
KWE2 250410Z 10011KT 19/11 A2974 RMK A01 T01870109  RH  061%=      5-min Rain = 0
KWE2 250411Z 09011KT 19/11 A2974 RMK A01 T01880110  RH  061%=      5-min Rain = 0
KWE2 250412Z 11012KT 19/11 A2974 RMK A01 T01880110  RH  061%=      5-min Rain = 0
KWE2 250413Z 10011KT 19/11 A2974 RMK A01 T01880111  RH  061%=      5-min Rain = 0
KWE2 250414Z 10011KT 19/11 A2975 RMK A01 T01880111  RH  061%=      5-min Rain = 0
KWE2 250415Z 10011KT 19/11 A2975 RMK A01 T01880111  RH  061%=      5-min Rain = 0
KWE2 250416Z 10011KT 19/11 A2975 RMK A01 T01890112  RH  061%=      5-min Rain = 0
KWE2 250417Z 10011KT 19/11 A2975 RMK A01 T01890112  RH  061%=      5-min Rain = 0
KWE2 250418Z 10012KT 19/11 A2976 RMK A01 T01890113  RH  061%=      5-min Rain = 0
KWE2 250419Z 10013KT 19/11 A2976 RMK A01 T01900114  RH  061%=      5-min Rain = 0
KWE2 250420Z 10011KT 19/12 A2976 RMK A01 T01910115  RH  061%=      5-min Rain = 0
KWE2 250421Z 10011KT 19/12 A2976 RMK A01 T01920115  RH  061%=      5-min Rain = 0
KWE2 250422Z 10013KT 19/12 A2976 RMK A01 T01920115  RH  061%=      5-min Rain = 0
KWE2 250423Z 10012KT 19/12 A2976 RMK A01 T01930116  RH  061%=      5-min Rain = 0
KWE2 250424Z 11012KT 19/12 A2976 RMK A01 T01930116  RH  061%=      5-min Rain = 0
KWE2 250425Z 11011KT 19/12 A2976 RMK A01 T01930117  RH  061%=      5-min Rain = 0
KWE2 250426Z 11012KT 19/12 A2976 RMK A01 T01930117  RH  061%=      5-min Rain = 0
KWE2 250427Z 10010KT 19/12 A2976 RMK A01 T01930117  RH  061%=      5-min Rain = 0
KWE2 250428Z 11011KT 19/12 A2976 RMK A01 T01930118  RH  062%=      5-min Rain = 0
KWE2 250429Z 11012KT 19/12 A2977 RMK A01 T01930118  RH  062%=      5-min Rain = 0
KWE2 250430Z 11012KT 19/12 A2977 RMK A01 T01930118  RH  062%=      5-min Rain = 0
KWE2 250431Z 11013KT 19/12 A2977 RMK A01 T01930118  RH  062%=      5-min Rain = 0
KWE2 250432Z 12012KT 19/12 A2977 RMK A01 T01930118  RH  062%=      5-min Rain = 0
KWE2 250433Z 11012KT 19/12 A2978 RMK A01 T01940118  RH  061%=      5-min Rain = 0
KWE2 250434Z 12013KT 19/12 A2978 RMK A01 T01940118  RH  061%=      5-min Rain = 0
KWE2 250435Z 12014KT 19/12 A2978 RMK A01 T01940117  RH  061%=      5-min Rain = 0
KWE2 250436Z 12013KT 19/12 A2978 RMK A01 T01940117  RH  061%=      5-min Rain = 0
KWE2 250437Z 13012KT 19/12 A2978 RMK A01 T01940117  RH  061%=      5-min Rain = 0
KWE2 250438Z 12013KT 19/12 A2978 RMK A01 T01940116  RH  061%=      5-min Rain = 0
KWE2 250439Z 12013KT 20/12 A2978 RMK A01 T01950116  RH  060%=      5-min Rain = 0
KWE2 250440Z 12013KT 20/12 A2978 RMK A01 T01950116  RH  060%=      5-min Rain = 0
KWE2 250441Z 12013KT 20/12 A2979 RMK A01 T01950115  RH  060%=      5-min Rain = 0
KWE2 250442Z 12012KT 20/12 A2979 RMK A01 T01960115  RH  060%=      5-min Rain = 0
KWE2 250443Z 13012KT 20/11 A2979 RMK A01 T01960114  RH  059%=      5-min Rain = 0
KWE2 250444Z 12013KT 20/12 A2979 RMK A01 T01960115  RH  059%=      5-min Rain = 0
KWE2 250445Z 12012KT 20/12 A2979 RMK A01 T01970115  RH  059%=      5-min Rain = 0
KWE2 250446Z 12014KT 20/12 A2979 RMK A01 T01970115  RH  059%=      5-min Rain = 0
KWE2 250447Z 12014KT 20/11 A2979 RMK A01 T01970114  RH  059%=      5-min Rain = 0
KWE2 250448Z 12014KT 20/11 A298 RMK A01 T01970114  RH  059%=      5-min Rain = 0
KWE2 250449Z 12013KT 20/11 A298 RMK A01 T01970114  RH  059%=      5-min Rain = 0
KWE2 250450Z 12014KT 20/12 A298 RMK A01 T01970115  RH  059%=      5-min Rain = 0
KWE2 250451Z 12012KT 20/12 A298 RMK A01 T01980115  RH  059%=      5-min Rain = 0
KWE2 250452Z 12012KT 20/12 A298 RMK A01 T01970115  RH  059%=      5-min Rain = 0
KWE2 250453Z 12012KT 20/12 A298 RMK A01 T01970116  RH  059%=      5-min Rain = 0
KWE2 250454Z 12014KT 20/12 A2981 RMK A01 T01980116  RH  059%=      5-min Rain = 0
KWE2 250455Z 12013KT 20/12 A2981 RMK A01 T01970116  RH  059%=      5-min Rain = 0
KWE2 250456Z 12013KT 20/12 A2981 RMK A01 T01970116  RH  059%=      5-min Rain = 0
KWE2 250457Z 12012KT 20/12 A2981 RMK A01 T01970116  RH  059%=      5-min Rain = 0
KWE2 250458Z 12013KT 20/12 A2981 RMK A01 T01970116  RH  060%=      5-min Rain = 0
KWE2 250459Z 13013KT 20/12 A2981 RMK A01 T01970116  RH  060%=      5-min Rain = 0

Page generated in 0.1377 seconds.